DAL65 KLAX-NZAA
Flight info
| Callsign | DAL65 |
|---|---|
| Flight time | N/A |
| Altitude | 34000 |
| Route | SUMMR2 FICKY B577 LENNA DCT 29N125W 25N130W/N0494F360 20N134W 15N138W DCT CARLS B200 ANJJE/N0493F380 B200 BISOX DCT 01S150W DCT PUMIS DCT 07S155W DCT MEGOG DCT 14S160W/N0487F400 DCT ASORO B200 AKLOM |
| Aircraft | A359/H-SDE2E3GHIJ3J4J5LM1ORWXY/LB1D1 |
Departure
| Time | 2026-05-07 22:23 |
|---|---|
| Airport | Los Angeles International Airport (KLAX) |
Arrival
| Time | N/A |
|---|---|
| Airport | Auckland International Airport (NZAA) |
| Time | Latitude | Longitude | Altitude | Speed | Heading |
|---|---|---|---|---|---|
| 2026-05-07 21:49 | 33.94522 | -118.41147 | 102 ft | 0 kts | 97° |
| 2026-05-07 22:12 | 33.94522 | -118.41150 | 99 ft | 3 kts | 97° |
| 2026-05-07 22:12 | 33.94525 | -118.41182 | 100 ft | 4 kts | 97° |
| 2026-05-07 22:12 | 33.94527 | -118.41214 | 98 ft | 4 kts | 83° |
| 2026-05-07 22:12 | 33.94519 | -118.41244 | 97 ft | 4 kts | 54° |
| 2026-05-07 22:13 | 33.94501 | -118.41262 | 98 ft | 3 kts | 5° |
| 2026-05-07 22:13 | 33.94498 | -118.41262 | 99 ft | 1 kts | 2° |
| 2026-05-07 22:17 | 33.94537 | -118.41262 | 105 ft | 12 kts | 357° |
| 2026-05-07 22:17 | 33.94640 | -118.41276 | 100 ft | 16 kts | 352° |
| 2026-05-07 22:18 | 33.94746 | -118.41290 | 102 ft | 14 kts | 2° |
| 2026-05-07 22:18 | 33.94811 | -118.41104 | 102 ft | 13 kts | 82° |
| 2026-05-07 22:18 | 33.94823 | -118.40991 | 101 ft | 14 kts | 83° |
| 2026-05-07 22:19 | 33.94836 | -118.40872 | 101 ft | 15 kts | 82° |
| 2026-05-07 22:19 | 33.94849 | -118.40744 | 102 ft | 16 kts | 83° |
| 2026-05-07 22:19 | 33.94862 | -118.40609 | 103 ft | 16 kts | 83° |
| 2026-05-07 22:19 | 33.94877 | -118.40470 | 103 ft | 17 kts | 83° |
| 2026-05-07 22:20 | 33.94892 | -118.40325 | 103 ft | 18 kts | 83° |
| 2026-05-07 22:20 | 33.94906 | -118.40183 | 102 ft | 12 kts | 83° |
| 2026-05-07 22:20 | 33.94915 | -118.40092 | 102 ft | 11 kts | 83° |
| 2026-05-07 22:20 | 33.94925 | -118.39996 | 99 ft | 11 kts | 83° |
| 2026-05-07 22:21 | 33.94943 | -118.39937 | 101 ft | 0 kts | 51° |
| 2026-05-07 22:21 | 33.94944 | -118.39937 | 101 ft | 1 kts | 51° |
| 2026-05-07 22:22 | 33.94968 | -118.39919 | 103 ft | 9 kts | 20° |
| 2026-05-07 22:22 | 33.95037 | -118.39956 | 103 ft | 14 kts | 288° |
| 2026-05-07 22:22 | 33.95028 | -118.40087 | 101 ft | 21 kts | 264° |
| 2026-05-07 22:22 | 33.94988 | -118.40477 | 104 ft | 77 kts | 263° |
| 2026-05-07 22:23 | 33.94900 | -118.41339 | 105 ft | 129 kts | 263° |
| 2026-05-07 22:23 | 33.94769 | -118.42590 | 267 ft | 159 kts | 263° |
| 2026-05-07 22:23 | 33.94667 | -118.43872 | 972 ft | 150 kts | 264° |
| 2026-05-07 22:23 | 33.94550 | -118.45138 | 1457 ft | 158 kts | 261° |
| 2026-05-07 22:24 | 33.94380 | -118.46541 | 1600 ft | 180 kts | 261° |
| 2026-05-07 22:24 | 33.94164 | -118.48108 | 1813 ft | 199 kts | 261° |
| 2026-05-07 22:24 | 33.93937 | -118.49840 | 2010 ft | 220 kts | 264° |
| 2026-05-07 22:24 | 33.93863 | -118.51750 | 2268 ft | 236 kts | 271° |
| 2026-05-07 22:25 | 33.93924 | -118.53786 | 2584 ft | 251 kts | 271° |
| 2026-05-07 22:25 | 33.93900 | -118.55939 | 3021 ft | 260 kts | 266° |
| 2026-05-07 22:25 | 33.93715 | -118.58116 | 3588 ft | 262 kts | 264° |
| 2026-05-07 22:25 | 33.93520 | -118.60290 | 4226 ft | 260 kts | 265° |
| 2026-05-07 22:26 | 33.93354 | -118.62425 | 4866 ft | 258 kts | 265° |
| 2026-05-07 22:26 | 33.93207 | -118.64573 | 5457 ft | 258 kts | 266° |
| 2026-05-07 22:26 | 33.93079 | -118.66734 | 6048 ft | 259 kts | 267° |
| 2026-05-07 22:26 | 33.92920 | -118.68967 | 6273 ft | 275 kts | 265° |
| 2026-05-07 22:27 | 33.92740 | -118.71273 | 6802 ft | 276 kts | 265° |
| 2026-05-07 22:27 | 33.92547 | -118.73581 | 7396 ft | 277 kts | 265° |
| 2026-05-07 22:27 | 33.92338 | -118.75885 | 7993 ft | 278 kts | 265° |
| 2026-05-07 22:27 | 33.92111 | -118.78209 | 8570 ft | 281 kts | 264° |
| 2026-05-07 22:28 | 33.91864 | -118.80605 | 8939 ft | 294 kts | 265° |
| 2026-05-07 22:28 | 33.91649 | -118.83070 | 9581 ft | 294 kts | 266° |
| 2026-05-07 22:28 | 33.91630 | -118.85497 | 10216 ft | 294 kts | 275° |
| 2026-05-07 22:28 | 33.91769 | -118.88013 | 10451 ft | 310 kts | 276° |
| 2026-05-07 22:29 | 33.91928 | -118.90674 | 10641 ft | 327 kts | 275° |
| 2026-05-07 22:29 | 33.92099 | -118.93467 | 10868 ft | 342 kts | 276° |
| 2026-05-07 22:29 | 33.92203 | -118.96382 | 11104 ft | 356 kts | 272° |
| 2026-05-07 22:29 | 33.92233 | -118.99429 | 11301 ft | 370 kts | 271° |
| 2026-05-07 22:30 | 33.92174 | -119.02576 | 11514 ft | 383 kts | 265° |
| 2026-05-07 22:30 | 33.91522 | -119.05731 | 11720 ft | 395 kts | 248° |
| 2026-05-07 22:30 | 33.90239 | -119.08696 | 11959 ft | 404 kts | 241° |
| 2026-05-07 22:30 | 33.88886 | -119.11670 | 12462 ft | 404 kts | 243° |
| 2026-05-07 22:31 | 33.87650 | -119.14708 | 12996 ft | 405 kts | 245° |
| 2026-05-07 22:31 | 33.86456 | -119.17807 | 13380 ft | 410 kts | 245° |
| 2026-05-07 22:31 | 33.85272 | -119.20948 | 13782 ft | 414 kts | 246° |
| 2026-05-07 22:31 | 33.84092 | -119.24119 | 14165 ft | 417 kts | 246° |
| 2026-05-07 22:32 | 33.82911 | -119.27317 | 14562 ft | 419 kts | 246° |
| 2026-05-07 22:32 | 33.81722 | -119.30530 | 14954 ft | 422 kts | 245° |
| 2026-05-07 22:32 | 33.80306 | -119.33634 | 15331 ft | 424 kts | 236° |
| 2026-05-07 22:32 | 33.78418 | -119.36356 | 15719 ft | 425 kts | 223° |
| 2026-05-07 22:33 | 33.76162 | -119.38664 | 16106 ft | 427 kts | 217° |
| 2026-05-07 22:33 | 33.73835 | -119.40838 | 16490 ft | 429 kts | 217° |
| 2026-05-07 22:33 | 33.71463 | -119.43038 | 16832 ft | 433 kts | 217° |
| 2026-05-07 22:33 | 33.69065 | -119.45269 | 17201 ft | 436 kts | 217° |
| 2026-05-07 22:34 | 33.66669 | -119.47505 | 17590 ft | 438 kts | 217° |
| 2026-05-07 22:34 | 33.64254 | -119.49761 | 17996 ft | 440 kts | 217° |
| 2026-05-07 22:34 | 33.61828 | -119.52028 | 18390 ft | 443 kts | 217° |
| 2026-05-07 22:34 | 33.59391 | -119.54305 | 18717 ft | 445 kts | 217° |
| 2026-05-07 22:35 | 33.56944 | -119.56591 | 19058 ft | 448 kts | 217° |
| 2026-05-07 22:35 | 33.54462 | -119.58907 | 19365 ft | 451 kts | 217° |
| 2026-05-07 22:35 | 33.51977 | -119.61225 | 19752 ft | 454 kts | 217° |
| 2026-05-07 22:35 | 33.49485 | -119.63549 | 20167 ft | 455 kts | 217° |
| 2026-05-07 22:36 | 33.46979 | -119.65883 | 20507 ft | 458 kts | 217° |
| 2026-05-07 22:36 | 33.44459 | -119.68229 | 20861 ft | 461 kts | 217° |
| 2026-05-07 22:36 | 33.41927 | -119.70584 | 21270 ft | 462 kts | 217° |
| 2026-05-07 22:36 | 33.39370 | -119.72960 | 21602 ft | 465 kts | 218° |
| 2026-05-07 22:37 | 33.36815 | -119.75333 | 21981 ft | 468 kts | 218° |
| 2026-05-07 22:37 | 33.34263 | -119.77701 | 22375 ft | 469 kts | 218° |
| 2026-05-07 22:37 | 33.31669 | -119.80107 | 22718 ft | 473 kts | 218° |
| 2026-05-07 22:37 | 33.29058 | -119.82526 | 23094 ft | 476 kts | 218° |
| 2026-05-07 22:38 | 33.26434 | -119.84955 | 23544 ft | 477 kts | 218° |
| 2026-05-07 22:38 | 33.23798 | -119.87394 | 23878 ft | 479 kts | 218° |
| 2026-05-07 22:38 | 33.21154 | -119.89838 | 24163 ft | 483 kts | 218° |
| 2026-05-07 22:38 | 33.18489 | -119.92300 | 24516 ft | 485 kts | 218° |
| 2026-05-07 22:39 | 33.15810 | -119.94773 | 24875 ft | 487 kts | 218° |
| 2026-05-07 22:39 | 33.13118 | -119.97255 | 25203 ft | 489 kts | 218° |
| 2026-05-07 22:39 | 33.10455 | -119.99709 | 25547 ft | 491 kts | 218° |
| 2026-05-07 22:39 | 33.07746 | -120.02203 | 25918 ft | 493 kts | 219° |
| 2026-05-07 22:40 | 33.05029 | -120.04703 | 26258 ft | 495 kts | 219° |
| 2026-05-07 22:40 | 33.02293 | -120.07218 | 26607 ft | 497 kts | 219° |
| 2026-05-07 22:40 | 32.99554 | -120.09734 | 26953 ft | 499 kts | 219° |
| 2026-05-07 22:40 | 32.96800 | -120.12262 | 27273 ft | 501 kts | 219° |
| 2026-05-07 22:41 | 32.94028 | -120.14804 | 27563 ft | 503 kts | 219° |
| 2026-05-07 22:41 | 32.91245 | -120.17354 | 27872 ft | 505 kts | 219° |
| 2026-05-07 22:41 | 32.88448 | -120.19915 | 28197 ft | 507 kts | 219° |
| 2026-05-07 22:41 | 32.85644 | -120.22480 | 28481 ft | 509 kts | 219° |
| 2026-05-07 22:42 | 32.82832 | -120.25050 | 28766 ft | 511 kts | 219° |
| 2026-05-07 22:42 | 32.80003 | -120.27634 | 29061 ft | 513 kts | 219° |
| 2026-05-07 22:42 | 32.77203 | -120.30189 | 29351 ft | 514 kts | 219° |
| 2026-05-07 22:42 | 32.74361 | -120.32780 | 29646 ft | 515 kts | 219° |
| 2026-05-07 22:43 | 32.71516 | -120.35372 | 30052 ft | 514 kts | 219° |
| 2026-05-07 22:43 | 32.68684 | -120.37950 | 30411 ft | 512 kts | 219° |
| 2026-05-07 22:43 | 32.65859 | -120.40519 | 30706 ft | 512 kts | 219° |
| 2026-05-07 22:43 | 32.63034 | -120.43086 | 31013 ft | 511 kts | 219° |
| 2026-05-07 22:44 | 32.60211 | -120.45650 | 31322 ft | 510 kts | 219° |
| 2026-05-07 22:44 | 32.57396 | -120.48212 | 31612 ft | 510 kts | 219° |
| 2026-05-07 22:44 | 32.54579 | -120.50768 | 31897 ft | 509 kts | 219° |
| 2026-05-07 22:44 | 32.51767 | -120.53315 | 32168 ft | 509 kts | 219° |
| 2026-05-07 22:45 | 32.48947 | -120.55868 | 32456 ft | 508 kts | 219° |
| 2026-05-07 22:45 | 32.46145 | -120.58404 | 32742 ft | 507 kts | 219° |
| 2026-05-07 22:45 | 32.43342 | -120.60939 | 33005 ft | 506 kts | 219° |
| 2026-05-07 22:45 | 32.40546 | -120.63466 | 33229 ft | 506 kts | 219° |
| 2026-05-07 22:46 | 32.37784 | -120.65960 | 33477 ft | 506 kts | 219° |
| 2026-05-07 22:46 | 32.34982 | -120.68489 | 33731 ft | 505 kts | 219° |
| 2026-05-07 22:46 | 32.32185 | -120.71010 | 33941 ft | 505 kts | 219° |
| 2026-05-07 22:46 | 32.29390 | -120.73529 | 34106 ft | 506 kts | 219° |
| 2026-05-07 22:47 | 32.26579 | -120.76060 | 34116 ft | 510 kts | 219° |
| 2026-05-07 22:47 | 32.20911 | -120.81157 | 34114 ft | 511 kts | 219° |
| 2026-05-07 22:48 | 32.15249 | -120.86240 | 34117 ft | 511 kts | 219° |
| 2026-05-07 22:48 | 32.09593 | -120.91309 | 34117 ft | 511 kts | 219° |
| 2026-05-07 22:49 | 32.03942 | -120.96366 | 34118 ft | 511 kts | 219° |
| 2026-05-07 22:49 | 31.98329 | -121.01381 | 34120 ft | 507 kts | 219° |
| 2026-05-07 22:50 | 31.92705 | -121.06398 | 34120 ft | 506 kts | 219° |
| 2026-05-07 22:50 | 31.87075 | -121.11412 | 34123 ft | 506 kts | 219° |
| 2026-05-07 22:51 | 31.81448 | -121.16417 | 34124 ft | 506 kts | 219° |
| 2026-05-07 22:51 | 31.75855 | -121.21382 | 34131 ft | 507 kts | 219° |
| 2026-05-07 22:52 | 31.70230 | -121.26369 | 34120 ft | 506 kts | 219° |
| 2026-05-07 22:52 | 31.64612 | -121.31342 | 34133 ft | 505 kts | 218° |
| 2026-05-07 22:53 | 31.59006 | -121.36298 | 34133 ft | 504 kts | 219° |
| 2026-05-07 22:53 | 31.53974 | -121.41962 | 34137 ft | 500 kts | 232° |
| 2026-05-07 22:54 | 31.49748 | -121.48445 | 34131 ft | 500 kts | 235° |
| 2026-05-07 22:54 | 31.45655 | -121.55028 | 34136 ft | 499 kts | 236° |
| 2026-05-07 22:55 | 31.41552 | -121.61584 | 34140 ft | 498 kts | 235° |
| 2026-05-07 22:55 | 31.37452 | -121.68064 | 34142 ft | 498 kts | 234° |
| 2026-05-07 22:56 | 31.33308 | -121.74576 | 34145 ft | 498 kts | 234° |
| 2026-05-07 22:56 | 31.29167 | -121.81069 | 34140 ft | 498 kts | 234° |
| 2026-05-07 22:57 | 31.25027 | -121.87552 | 34143 ft | 497 kts | 234° |
| 2026-05-07 22:57 | 31.20915 | -121.93984 | 34143 ft | 497 kts | 234° |
| 2026-05-07 22:58 | 31.16775 | -122.00447 | 34148 ft | 497 kts | 234° |
| 2026-05-07 22:58 | 31.12629 | -122.06910 | 34152 ft | 498 kts | 234° |
| 2026-05-07 22:59 | 31.08479 | -122.13370 | 34151 ft | 497 kts | 233° |
| 2026-05-07 22:59 | 31.04327 | -122.19820 | 34153 ft | 496 kts | 233° |
| 2026-05-07 23:00 | 31.00176 | -122.26259 | 34156 ft | 496 kts | 233° |
| 2026-05-07 23:00 | 30.96051 | -122.32648 | 34160 ft | 496 kts | 233° |
| 2026-05-07 23:01 | 30.91893 | -122.39076 | 34159 ft | 495 kts | 233° |
| 2026-05-07 23:01 | 30.87743 | -122.45481 | 34161 ft | 495 kts | 233° |
| 2026-05-07 23:02 | 30.83589 | -122.51883 | 34162 ft | 495 kts | 233° |
| 2026-05-07 23:02 | 30.79438 | -122.58270 | 34162 ft | 495 kts | 233° |
| 2026-05-07 23:03 | 30.75311 | -122.64609 | 34165 ft | 495 kts | 233° |
| 2026-05-07 23:03 | 30.71152 | -122.70987 | 34165 ft | 494 kts | 233° |
| 2026-05-07 23:04 | 30.66994 | -122.77354 | 34167 ft | 494 kts | 233° |
| 2026-05-07 23:04 | 30.62826 | -122.83725 | 34170 ft | 494 kts | 233° |
| 2026-05-07 23:05 | 30.58667 | -122.90073 | 34168 ft | 494 kts | 233° |
| 2026-05-07 23:05 | 30.54501 | -122.96421 | 34170 ft | 494 kts | 233° |
| 2026-05-07 23:06 | 30.50318 | -123.02683 | 34171 ft | 494 kts | 231° |
| 2026-05-07 23:06 | 30.45809 | -123.08719 | 34176 ft | 494 kts | 229° |
| 2026-05-07 23:07 | 30.41242 | -123.14693 | 34177 ft | 494 kts | 230° |
| 2026-05-07 23:07 | 30.37476 | -123.19681 | 34176 ft | 494 kts | 230° |
| 2026-05-07 23:08 | 30.32251 | -123.26670 | 34178 ft | 494 kts | 230° |
| 2026-05-07 23:08 | 30.28517 | -123.31673 | 34178 ft | 494 kts | 230° |
| 2026-05-07 23:09 | 30.24019 | -123.37690 | 34181 ft | 494 kts | 230° |
| 2026-05-07 23:09 | 30.19513 | -123.43705 | 34181 ft | 494 kts | 230° |
| 2026-05-07 23:10 | 30.15010 | -123.49705 | 34184 ft | 494 kts | 230° |
| 2026-05-07 23:10 | 30.10498 | -123.55708 | 34184 ft | 494 kts | 230° |
| 2026-05-07 23:11 | 30.06014 | -123.61664 | 34184 ft | 494 kts | 230° |
| 2026-05-07 23:11 | 30.01503 | -123.67649 | 34184 ft | 494 kts | 230° |
| 2026-05-07 23:12 | 29.96986 | -123.73631 | 34184 ft | 494 kts | 230° |
| 2026-05-07 23:12 | 29.92468 | -123.79605 | 34184 ft | 494 kts | 230° |
| 2026-05-07 23:13 | 29.87945 | -123.85578 | 34184 ft | 495 kts | 229° |
| 2026-05-07 23:13 | 29.83415 | -123.91550 | 34189 ft | 495 kts | 230° |
| 2026-05-07 23:14 | 29.78888 | -123.97510 | 34189 ft | 494 kts | 230° |
| 2026-05-07 23:14 | 29.74353 | -124.03472 | 34189 ft | 494 kts | 229° |
| 2026-05-07 23:15 | 29.69850 | -124.09383 | 34189 ft | 494 kts | 230° |
| 2026-05-07 23:15 | 29.65314 | -124.15328 | 34192 ft | 494 kts | 230° |
| 2026-05-07 23:16 | 29.60780 | -124.21262 | 34189 ft | 494 kts | 230° |
| 2026-05-07 23:16 | 29.56235 | -124.27201 | 34188 ft | 494 kts | 229° |
| 2026-05-07 23:17 | 29.51686 | -124.33137 | 34195 ft | 495 kts | 229° |
| 2026-05-07 23:17 | 29.47138 | -124.39062 | 34189 ft | 495 kts | 229° |
| 2026-05-07 23:18 | 29.42612 | -124.44950 | 34194 ft | 495 kts | 229° |
| 2026-05-07 23:18 | 29.38056 | -124.50869 | 34194 ft | 495 kts | 229° |
| 2026-05-07 23:19 | 29.33488 | -124.56795 | 34197 ft | 495 kts | 229° |
| 2026-05-07 23:19 | 29.28917 | -124.62714 | 34197 ft | 495 kts | 229° |
| 2026-05-07 23:20 | 29.24344 | -124.68630 | 34194 ft | 495 kts | 229° |
| 2026-05-07 23:20 | 29.19799 | -124.74498 | 34193 ft | 495 kts | 230° |
| 2026-05-07 23:21 | 29.15221 | -124.80403 | 34195 ft | 496 kts | 229° |
| 2026-05-07 23:21 | 29.10629 | -124.86316 | 34201 ft | 497 kts | 229° |
| 2026-05-07 23:22 | 29.06035 | -124.92224 | 34200 ft | 497 kts | 230° |
| 2026-05-07 23:22 | 29.01464 | -124.98093 | 34199 ft | 497 kts | 229° |
| 2026-05-07 23:23 | 28.96887 | -125.04017 | 34197 ft | 498 kts | 230° |
| 2026-05-07 23:23 | 28.92377 | -125.10014 | 34201 ft | 498 kts | 231° |
| 2026-05-07 23:24 | 28.87862 | -125.16025 | 34203 ft | 498 kts | 231° |
| 2026-05-07 23:24 | 28.83358 | -125.21988 | 34203 ft | 498 kts | 230° |
| 2026-05-07 23:25 | 28.78826 | -125.27964 | 34204 ft | 498 kts | 230° |
| 2026-05-07 23:25 | 28.74282 | -125.33944 | 34199 ft | 499 kts | 230° |
| 2026-05-07 23:26 | 28.69728 | -125.39930 | 34207 ft | 500 kts | 230° |
| 2026-05-07 23:26 | 28.65166 | -125.45918 | 34206 ft | 499 kts | 230° |
| 2026-05-07 23:27 | 28.58353 | -125.54845 | 34206 ft | 500 kts | 230° |
| 2026-05-07 23:27 | 28.53783 | -125.60824 | 34211 ft | 500 kts | 230° |
| 2026-05-07 23:28 | 28.49212 | -125.66793 | 34209 ft | 500 kts | 230° |
| 2026-05-07 23:28 | 28.44640 | -125.72756 | 34209 ft | 500 kts | 230° |
| 2026-05-07 23:29 | 28.40066 | -125.78714 | 34211 ft | 500 kts | 230° |
| 2026-05-07 23:29 | 28.35484 | -125.84673 | 34208 ft | 501 kts | 230° |
| 2026-05-07 23:30 | 28.30894 | -125.90634 | 34214 ft | 501 kts | 230° |
| 2026-05-07 23:30 | 28.26305 | -125.96584 | 34215 ft | 501 kts | 230° |
| 2026-05-07 23:31 | 28.21716 | -126.02527 | 34212 ft | 501 kts | 230° |
| 2026-05-07 23:31 | 28.17150 | -126.08432 | 34214 ft | 501 kts | 230° |
| 2026-05-07 23:32 | 28.12551 | -126.14370 | 34214 ft | 501 kts | 230° |
| 2026-05-07 23:32 | 28.07946 | -126.20308 | 34210 ft | 501 kts | 230° |
| 2026-05-07 23:33 | 28.03345 | -126.26234 | 34205 ft | 501 kts | 230° |
| 2026-05-07 23:33 | 27.98727 | -126.32171 | 34209 ft | 502 kts | 230° |
| 2026-05-07 23:34 | 27.94110 | -126.38100 | 34211 ft | 502 kts | 230° |
| 2026-05-07 23:34 | 27.89515 | -126.43992 | 34211 ft | 502 kts | 230° |
| 2026-05-07 23:35 | 27.84892 | -126.49912 | 34213 ft | 502 kts | 230° |
| 2026-05-07 23:35 | 27.80256 | -126.55839 | 34214 ft | 503 kts | 231° |
| 2026-05-07 23:36 | 27.75610 | -126.61772 | 34214 ft | 504 kts | 231° |
| 2026-05-07 23:36 | 27.70966 | -126.67694 | 34213 ft | 504 kts | 231° |
| 2026-05-07 23:37 | 27.66350 | -126.73571 | 34211 ft | 504 kts | 231° |
| 2026-05-07 23:37 | 27.61675 | -126.79517 | 34210 ft | 506 kts | 231° |
| 2026-05-07 23:38 | 27.56990 | -126.85466 | 34211 ft | 507 kts | 231° |
| 2026-05-07 23:38 | 27.52336 | -126.91367 | 34210 ft | 507 kts | 231° |
| 2026-05-07 23:39 | 27.47643 | -126.97308 | 34215 ft | 507 kts | 231° |
| 2026-05-07 23:39 | 27.42945 | -127.03249 | 34211 ft | 509 kts | 232° |
| 2026-05-07 23:40 | 27.38224 | -127.09212 | 34214 ft | 511 kts | 231° |
| 2026-05-07 23:40 | 27.33484 | -127.15188 | 34215 ft | 511 kts | 231° |
| 2026-05-07 23:41 | 27.28777 | -127.21115 | 34210 ft | 511 kts | 231° |
| 2026-05-07 23:41 | 27.24026 | -127.27088 | 34216 ft | 512 kts | 232° |
| 2026-05-07 23:42 | 27.19268 | -127.33064 | 34213 ft | 513 kts | 232° |
| 2026-05-07 23:42 | 27.14510 | -127.39030 | 34211 ft | 512 kts | 232° |
| 2026-05-07 23:43 | 27.09748 | -127.44993 | 34212 ft | 512 kts | 232° |
| 2026-05-07 23:43 | 27.04985 | -127.50950 | 34212 ft | 512 kts | 232° |
| 2026-05-07 23:44 | 27.00226 | -127.56893 | 34216 ft | 512 kts | 232° |
| 2026-05-07 23:44 | 26.95496 | -127.62791 | 34212 ft | 512 kts | 232° |
| 2026-05-07 23:45 | 26.90724 | -127.68735 | 34212 ft | 512 kts | 232° |
| 2026-05-07 23:45 | 26.85978 | -127.74638 | 34211 ft | 512 kts | 231° |
| 2026-05-07 23:46 | 26.81215 | -127.80553 | 34208 ft | 510 kts | 231° |
| 2026-05-07 23:46 | 26.76462 | -127.86449 | 34210 ft | 509 kts | 231° |
| 2026-05-07 23:47 | 26.71704 | -127.92343 | 34208 ft | 509 kts | 231° |
| 2026-05-07 23:47 | 26.66949 | -127.98226 | 34204 ft | 509 kts | 231° |
| 2026-05-07 23:48 | 26.62234 | -128.04050 | 34208 ft | 508 kts | 231° |
| 2026-05-07 23:48 | 26.57486 | -128.09908 | 34209 ft | 508 kts | 231° |
| 2026-05-07 23:49 | 26.52733 | -128.15764 | 34206 ft | 508 kts | 231° |
| 2026-05-07 23:49 | 26.47980 | -128.21613 | 34206 ft | 508 kts | 231° |
| 2026-05-07 23:50 | 26.43228 | -128.27451 | 34195 ft | 508 kts | 231° |
| 2026-05-07 23:50 | 26.38507 | -128.33246 | 34204 ft | 506 kts | 231° |
| 2026-05-07 23:51 | 26.33762 | -128.39060 | 34202 ft | 506 kts | 231° |
| 2026-05-07 23:51 | 26.29016 | -128.44870 | 34202 ft | 506 kts | 231° |
| 2026-05-07 23:52 | 26.24270 | -128.50671 | 34203 ft | 506 kts | 231° |
| 2026-05-07 23:52 | 26.19523 | -128.56466 | 34203 ft | 506 kts | 231° |
| 2026-05-07 23:53 | 26.14801 | -128.62224 | 34209 ft | 506 kts | 231° |
| 2026-05-07 23:53 | 26.10052 | -128.68006 | 34198 ft | 506 kts | 231° |
| 2026-05-07 23:54 | 26.05295 | -128.73791 | 34198 ft | 506 kts | 231° |
| 2026-05-07 23:54 | 26.00552 | -128.79551 | 34196 ft | 505 kts | 231° |
| 2026-05-07 23:55 | 25.95802 | -128.85312 | 34198 ft | 504 kts | 231° |
| 2026-05-07 23:55 | 25.91054 | -128.91064 | 34205 ft | 504 kts | 230° |
| 2026-05-07 23:56 | 25.86343 | -128.96763 | 34204 ft | 504 kts | 230° |
| 2026-05-07 23:56 | 25.82367 | -129.01568 | 34202 ft | 504 kts | 230° |
| 2026-05-07 23:57 | 25.77651 | -129.07261 | 34204 ft | 504 kts | 230° |
| 2026-05-07 23:57 | 25.72889 | -129.13001 | 34191 ft | 504 kts | 230° |
| 2026-05-07 23:58 | 25.68142 | -129.18716 | 34195 ft | 503 kts | 230° |
| 2026-05-07 23:58 | 25.63425 | -129.24387 | 34195 ft | 503 kts | 230° |
| 2026-05-07 23:59 | 25.58687 | -129.30076 | 34195 ft | 502 kts | 230° |
| 2026-05-07 23:59 | 25.53947 | -129.35762 | 34183 ft | 502 kts | 230° |
| 2026-05-08 00:00 | 25.49209 | -129.41438 | 34195 ft | 502 kts | 230° |
| 2026-05-08 00:00 | 25.44470 | -129.47107 | 34195 ft | 502 kts | 230° |
| 2026-05-08 00:01 | 25.39728 | -129.52773 | 34189 ft | 502 kts | 230° |
| 2026-05-08 00:01 | 25.35007 | -129.58408 | 34186 ft | 502 kts | 230° |
| 2026-05-08 00:02 | 25.30257 | -129.64069 | 34189 ft | 502 kts | 230° |
| 2026-05-08 00:02 | 25.25505 | -129.69726 | 34181 ft | 502 kts | 230° |
| 2026-05-08 00:03 | 25.20755 | -129.75374 | 34184 ft | 501 kts | 230° |
| 2026-05-08 00:03 | 25.16044 | -129.80969 | 34174 ft | 501 kts | 229° |
| 2026-05-08 00:04 | 25.11303 | -129.86592 | 34185 ft | 500 kts | 229° |
| 2026-05-08 00:04 | 25.06556 | -129.92216 | 34184 ft | 500 kts | 229° |
| 2026-05-08 00:05 | 25.01814 | -129.97823 | 34191 ft | 500 kts | 229° |
| 2026-05-08 00:05 | 24.99266 | -130.00442 | 34408 ft | 500 kts | 221° |
| 2026-05-08 00:05 | 24.96562 | -130.02840 | 34740 ft | 497 kts | 220° |
| 2026-05-08 00:06 | 24.93837 | -130.05178 | 35010 ft | 495 kts | 220° |
| 2026-05-08 00:06 | 24.91100 | -130.07483 | 35234 ft | 494 kts | 220° |
| 2026-05-08 00:06 | 24.88358 | -130.09770 | 35425 ft | 493 kts | 220° |
| 2026-05-08 00:06 | 24.85620 | -130.12047 | 35677 ft | 491 kts | 220° |
| 2026-05-08 00:07 | 24.82896 | -130.14314 | 35876 ft | 491 kts | 220° |
| 2026-05-08 00:07 | 24.80208 | -130.16552 | 36008 ft | 491 kts | 220° |
| 2026-05-08 00:07 | 24.77453 | -130.18850 | 36150 ft | 490 kts | 220° |
| 2026-05-08 00:07 | 24.74763 | -130.21093 | 36178 ft | 480 kts | 220° |
| 2026-05-08 00:08 | 24.69523 | -130.25461 | 36167 ft | 473 kts | 220° |
| 2026-05-08 00:08 | 24.64268 | -130.29845 | 36176 ft | 473 kts | 220° |
| 2026-05-08 00:09 | 24.59019 | -130.34218 | 36176 ft | 473 kts | 220° |
| 2026-05-08 00:09 | 24.53762 | -130.38591 | 36172 ft | 473 kts | 220° |
| 2026-05-08 00:10 | 24.48546 | -130.42923 | 36176 ft | 472 kts | 220° |
| 2026-05-08 00:10 | 24.43312 | -130.47266 | 36176 ft | 472 kts | 220° |
| 2026-05-08 00:11 | 24.38068 | -130.51613 | 36176 ft | 472 kts | 220° |
| 2026-05-08 00:11 | 24.32820 | -130.55959 | 36176 ft | 472 kts | 220° |
| 2026-05-08 00:12 | 24.27574 | -130.60298 | 36170 ft | 472 kts | 220° |
| 2026-05-08 00:12 | 24.22360 | -130.64607 | 36170 ft | 472 kts | 220° |
| 2026-05-08 00:13 | 24.17104 | -130.68946 | 36168 ft | 472 kts | 220° |
| 2026-05-08 00:13 | 24.11860 | -130.73269 | 36167 ft | 472 kts | 220° |
| 2026-05-08 00:14 | 24.06609 | -130.77594 | 36167 ft | 472 kts | 220° |
| 2026-05-08 00:14 | 24.01359 | -130.81915 | 36168 ft | 472 kts | 220° |
| 2026-05-08 00:15 | 23.96131 | -130.86212 | 36168 ft | 472 kts | 220° |
| 2026-05-08 00:15 | 23.90871 | -130.90530 | 36158 ft | 472 kts | 220° |
| 2026-05-08 00:16 | 23.85622 | -130.94836 | 36171 ft | 471 kts | 220° |
| 2026-05-08 00:16 | 23.80384 | -130.99128 | 36164 ft | 471 kts | 220° |
| 2026-05-08 00:17 | 23.75139 | -131.03421 | 36159 ft | 471 kts | 220° |
| 2026-05-08 00:17 | 23.69901 | -131.07705 | 36159 ft | 471 kts | 220° |
| 2026-05-08 00:18 | 23.64657 | -131.11988 | 36156 ft | 471 kts | 220° |
| 2026-05-08 00:18 | 23.59404 | -131.16275 | 36156 ft | 471 kts | 220° |
| 2026-05-08 00:19 | 23.54154 | -131.20555 | 36154 ft | 471 kts | 220° |
| 2026-05-08 00:19 | 23.48932 | -131.24807 | 36157 ft | 471 kts | 219° |
| 2026-05-08 00:20 | 23.43676 | -131.29084 | 36150 ft | 471 kts | 219° |
| 2026-05-08 00:20 | 23.38419 | -131.33356 | 36150 ft | 471 kts | 219° |
| 2026-05-08 00:21 | 23.33162 | -131.37624 | 36151 ft | 471 kts | 219° |
| 2026-05-08 00:21 | 23.27903 | -131.41890 | 36149 ft | 471 kts | 219° |
| 2026-05-08 00:22 | 23.22676 | -131.46125 | 36146 ft | 471 kts | 219° |
| 2026-05-08 00:22 | 23.17416 | -131.50382 | 36146 ft | 471 kts | 219° |
| 2026-05-08 00:23 | 23.12157 | -131.54635 | 36144 ft | 471 kts | 219° |
| 2026-05-08 00:23 | 23.06895 | -131.58886 | 36140 ft | 471 kts | 219° |
| 2026-05-08 00:24 | 23.01627 | -131.63137 | 36140 ft | 471 kts | 219° |
| 2026-05-08 00:24 | 22.96359 | -131.67384 | 36139 ft | 471 kts | 219° |
| 2026-05-08 00:25 | 22.91089 | -131.71629 | 36137 ft | 471 kts | 219° |
| 2026-05-08 00:25 | 22.85831 | -131.75859 | 36135 ft | 471 kts | 219° |
| 2026-05-08 00:26 | 22.80596 | -131.80067 | 36135 ft | 470 kts | 219° |
| 2026-05-08 00:26 | 22.75327 | -131.84298 | 36137 ft | 470 kts | 219° |
| 2026-05-08 00:27 | 22.70100 | -131.88492 | 36138 ft | 470 kts | 219° |
| 2026-05-08 00:27 | 22.64827 | -131.92718 | 36138 ft | 470 kts | 219° |
| 2026-05-08 00:28 | 22.59561 | -131.96934 | 36131 ft | 470 kts | 219° |
| 2026-05-08 00:28 | 22.54320 | -132.01126 | 36135 ft | 467 kts | 219° |
| 2026-05-08 00:29 | 22.49092 | -132.05304 | 36132 ft | 467 kts | 219° |
| 2026-05-08 00:29 | 22.43899 | -132.09451 | 36132 ft | 467 kts | 219° |
| 2026-05-08 00:30 | 22.38671 | -132.13621 | 36139 ft | 467 kts | 219° |
| 2026-05-08 00:30 | 22.33445 | -132.17785 | 36127 ft | 467 kts | 219° |
| 2026-05-08 00:31 | 22.28218 | -132.21947 | 36124 ft | 467 kts | 219° |
| 2026-05-08 00:31 | 22.23000 | -132.26096 | 36137 ft | 465 kts | 220° |
| 2026-05-08 00:32 | 22.17790 | -132.30236 | 36127 ft | 464 kts | 220° |
| 2026-05-08 00:32 | 22.12586 | -132.34367 | 36126 ft | 464 kts | 220° |
| 2026-05-08 00:33 | 22.07413 | -132.38470 | 36125 ft | 464 kts | 220° |
| 2026-05-08 00:33 | 22.02206 | -132.42596 | 36127 ft | 464 kts | 220° |
| 2026-05-08 00:34 | 21.96992 | -132.46723 | 36123 ft | 464 kts | 220° |
| 2026-05-08 00:34 | 21.91779 | -132.50846 | 36117 ft | 463 kts | 220° |
| 2026-05-08 00:35 | 21.86617 | -132.54924 | 36119 ft | 463 kts | 220° |
| 2026-05-08 00:35 | 21.81418 | -132.59029 | 36120 ft | 463 kts | 220° |
| 2026-05-08 00:36 | 21.76225 | -132.63125 | 36116 ft | 463 kts | 220° |
| 2026-05-08 00:36 | 21.71030 | -132.67218 | 36116 ft | 462 kts | 220° |
| 2026-05-08 00:37 | 21.65835 | -132.71309 | 36115 ft | 462 kts | 220° |
| 2026-05-08 00:38 | 21.58087 | -132.77400 | 36116 ft | 460 kts | 221° |
| 2026-05-08 00:38 | 21.52923 | -132.81456 | 36113 ft | 460 kts | 221° |
| 2026-05-08 00:39 | 21.47758 | -132.85510 | 36112 ft | 460 kts | 221° |
| 2026-05-08 00:39 | 21.42589 | -132.89564 | 36109 ft | 460 kts | 221° |
| 2026-05-08 00:40 | 21.37426 | -132.93609 | 36111 ft | 460 kts | 221° |
| 2026-05-08 00:40 | 21.32250 | -132.97660 | 36113 ft | 460 kts | 221° |
| 2026-05-08 00:41 | 21.27091 | -133.01692 | 36105 ft | 457 kts | 221° |
| 2026-05-08 00:41 | 21.21996 | -133.05669 | 36102 ft | 453 kts | 222° |
| 2026-05-08 00:42 | 21.16902 | -133.09647 | 36108 ft | 452 kts | 222° |
| 2026-05-08 00:42 | 21.11813 | -133.13618 | 36105 ft | 452 kts | 222° |
| 2026-05-08 00:43 | 21.06754 | -133.17561 | 36106 ft | 452 kts | 222° |
| 2026-05-08 00:43 | 21.01663 | -133.21526 | 36106 ft | 452 kts | 222° |
| 2026-05-08 00:44 | 20.97427 | -133.24821 | 36101 ft | 452 kts | 222° |
| 2026-05-08 00:44 | 20.92342 | -133.28773 | 36099 ft | 451 kts | 222° |
| 2026-05-08 00:45 | 20.87256 | -133.32723 | 36098 ft | 451 kts | 222° |
| 2026-05-08 00:45 | 20.82175 | -133.36666 | 36097 ft | 451 kts | 222° |
| 2026-05-08 00:46 | 20.77094 | -133.40606 | 36094 ft | 451 kts | 222° |
| 2026-05-08 00:46 | 20.72014 | -133.44541 | 36090 ft | 451 kts | 222° |
| 2026-05-08 00:47 | 20.66930 | -133.48476 | 36080 ft | 450 kts | 222° |
| 2026-05-08 00:47 | 20.61861 | -133.52395 | 36089 ft | 449 kts | 223° |
| 2026-05-08 00:48 | 20.56812 | -133.56296 | 36086 ft | 448 kts | 223° |
| 2026-05-08 00:48 | 20.51761 | -133.60197 | 36087 ft | 448 kts | 223° |
| 2026-05-08 00:49 | 20.46740 | -133.64071 | 36084 ft | 448 kts | 223° |
| 2026-05-08 00:49 | 20.41682 | -133.67969 | 36096 ft | 447 kts | 223° |
| 2026-05-08 00:50 | 20.36636 | -133.71855 | 36080 ft | 447 kts | 223° |
| 2026-05-08 00:50 | 20.31615 | -133.75719 | 36086 ft | 446 kts | 223° |
| 2026-05-08 00:51 | 20.26586 | -133.79585 | 36083 ft | 446 kts | 223° |
| 2026-05-08 00:51 | 20.21547 | -133.83456 | 36073 ft | 446 kts | 223° |
| 2026-05-08 00:52 | 20.16511 | -133.87323 | 36079 ft | 446 kts | 223° |
| 2026-05-08 00:52 | 20.11482 | -133.91181 | 36082 ft | 446 kts | 223° |
| 2026-05-08 00:53 | 20.06450 | -133.95037 | 36079 ft | 446 kts | 223° |
| 2026-05-08 00:53 | 20.01417 | -133.98891 | 36067 ft | 446 kts | 223° |
| 2026-05-08 00:54 | 19.96438 | -134.02798 | 36075 ft | 443 kts | 225° |
| 2026-05-08 00:54 | 19.91598 | -134.06859 | 36074 ft | 443 kts | 226° |
| 2026-05-08 00:55 | 19.86767 | -134.10930 | 36075 ft | 444 kts | 225° |
| 2026-05-08 00:55 | 19.81935 | -134.14956 | 36074 ft | 444 kts | 225° |
| 2026-05-08 00:56 | 19.77065 | -134.18987 | 36071 ft | 444 kts | 225° |
| 2026-05-08 00:56 | 19.72186 | -134.23019 | 36065 ft | 444 kts | 225° |
| 2026-05-08 00:57 | 19.67328 | -134.27032 | 36075 ft | 445 kts | 225° |
| 2026-05-08 00:57 | 19.62437 | -134.31071 | 36072 ft | 446 kts | 225° |
| 2026-05-08 00:58 | 19.57527 | -134.35120 | 36069 ft | 446 kts | 225° |
| 2026-05-08 00:58 | 19.52626 | -134.39159 | 36069 ft | 446 kts | 225° |
| 2026-05-08 00:59 | 19.47718 | -134.43201 | 36061 ft | 446 kts | 224° |
| 2026-05-08 00:59 | 19.42841 | -134.47216 | 36067 ft | 447 kts | 224° |
| 2026-05-08 01:00 | 19.37920 | -134.51263 | 36054 ft | 447 kts | 225° |
| 2026-05-08 01:00 | 19.33007 | -134.55299 | 36067 ft | 446 kts | 225° |
| 2026-05-08 01:01 | 19.28097 | -134.59330 | 36066 ft | 446 kts | 225° |
| 2026-05-08 01:01 | 19.23182 | -134.63362 | 36061 ft | 446 kts | 225° |
| 2026-05-08 01:02 | 19.18283 | -134.67378 | 36062 ft | 445 kts | 225° |
| 2026-05-08 01:02 | 19.13418 | -134.71364 | 36061 ft | 445 kts | 225° |
| 2026-05-08 01:03 | 19.08518 | -134.75376 | 36062 ft | 445 kts | 225° |
| 2026-05-08 01:03 | 19.03610 | -134.79389 | 36059 ft | 445 kts | 225° |
| 2026-05-08 01:04 | 18.98724 | -134.83382 | 36062 ft | 443 kts | 225° |
| 2026-05-08 01:04 | 18.93833 | -134.87376 | 36062 ft | 443 kts | 225° |
| 2026-05-08 01:05 | 18.88984 | -134.91334 | 36062 ft | 443 kts | 225° |
| 2026-05-08 01:05 | 18.84103 | -134.95314 | 36059 ft | 443 kts | 225° |
| 2026-05-08 01:06 | 18.79217 | -134.99296 | 36060 ft | 443 kts | 225° |
| 2026-05-08 01:06 | 18.74326 | -135.03277 | 36052 ft | 443 kts | 226° |
| 2026-05-08 01:07 | 18.69449 | -135.07245 | 36056 ft | 442 kts | 226° |
| 2026-05-08 01:07 | 18.64608 | -135.11181 | 36056 ft | 442 kts | 226° |
| 2026-05-08 01:08 | 18.59738 | -135.15138 | 36052 ft | 442 kts | 226° |
| 2026-05-08 01:08 | 18.54873 | -135.19087 | 36059 ft | 442 kts | 226° |
| 2026-05-08 01:09 | 18.50003 | -135.23037 | 36056 ft | 442 kts | 226° |
| 2026-05-08 01:09 | 18.45125 | -135.26992 | 36056 ft | 442 kts | 226° |
| 2026-05-08 01:10 | 18.40256 | -135.30936 | 36052 ft | 442 kts | 226° |
| 2026-05-08 01:10 | 18.35412 | -135.34856 | 36048 ft | 441 kts | 226° |
| 2026-05-08 01:11 | 18.30507 | -135.38823 | 36052 ft | 441 kts | 226° |
| 2026-05-08 01:11 | 18.25670 | -135.42732 | 36048 ft | 441 kts | 226° |
| 2026-05-08 01:12 | 18.20793 | -135.46671 | 36048 ft | 441 kts | 226° |
| 2026-05-08 01:12 | 18.15922 | -135.50602 | 36038 ft | 441 kts | 226° |
| 2026-05-08 01:13 | 18.11048 | -135.54533 | 36045 ft | 442 kts | 226° |
| 2026-05-08 01:13 | 18.06173 | -135.58462 | 36043 ft | 442 kts | 226° |
| 2026-05-08 01:14 | 18.01287 | -135.62397 | 36044 ft | 442 kts | 226° |
| 2026-05-08 01:14 | 17.96407 | -135.66323 | 36032 ft | 442 kts | 226° |
| 2026-05-08 01:15 | 17.91526 | -135.70249 | 36043 ft | 442 kts | 225° |
| 2026-05-08 01:15 | 17.86657 | -135.74162 | 36040 ft | 443 kts | 225° |
| 2026-05-08 01:16 | 17.81766 | -135.78089 | 36041 ft | 443 kts | 225° |
| 2026-05-08 01:16 | 17.76876 | -135.82013 | 36037 ft | 442 kts | 225° |
| 2026-05-08 01:17 | 17.71984 | -135.85935 | 36036 ft | 442 kts | 225° |
| 2026-05-08 01:17 | 17.67094 | -135.89854 | 36036 ft | 442 kts | 225° |
| 2026-05-08 01:18 | 17.62205 | -135.93768 | 36029 ft | 442 kts | 225° |
| 2026-05-08 01:18 | 17.57345 | -135.97658 | 36039 ft | 442 kts | 225° |
| 2026-05-08 01:19 | 17.52447 | -136.01574 | 36036 ft | 443 kts | 225° |
| 2026-05-08 01:19 | 17.47537 | -136.05499 | 36031 ft | 444 kts | 225° |
| 2026-05-08 01:20 | 17.42624 | -136.09421 | 36032 ft | 444 kts | 225° |
| 2026-05-08 01:20 | 17.37706 | -136.13345 | 36028 ft | 444 kts | 225° |
| 2026-05-08 01:21 | 17.32825 | -136.17237 | 36023 ft | 445 kts | 224° |
| 2026-05-08 01:21 | 17.27884 | -136.21176 | 36033 ft | 447 kts | 224° |
| 2026-05-08 01:22 | 17.22935 | -136.25115 | 36023 ft | 447 kts | 224° |
| 2026-05-08 01:22 | 17.17986 | -136.29053 | 36024 ft | 447 kts | 224° |
| 2026-05-08 01:23 | 17.13035 | -136.32990 | 36021 ft | 447 kts | 223° |
| 2026-05-08 01:23 | 17.08079 | -136.36928 | 36028 ft | 446 kts | 223° |
| 2026-05-08 01:24 | 17.03132 | -136.40857 | 36023 ft | 447 kts | 223° |
| 2026-05-08 01:24 | 16.98203 | -136.44769 | 36020 ft | 448 kts | 223° |
| 2026-05-08 01:25 | 16.93227 | -136.48715 | 36014 ft | 449 kts | 223° |
| 2026-05-08 01:25 | 16.88251 | -136.52658 | 36018 ft | 448 kts | 223° |
| 2026-05-08 01:26 | 16.83276 | -136.56599 | 36019 ft | 449 kts | 223° |
| 2026-05-08 01:26 | 16.78286 | -136.60549 | 36016 ft | 450 kts | 223° |
| 2026-05-08 01:27 | 16.73310 | -136.64486 | 36016 ft | 452 kts | 223° |
| 2026-05-08 01:27 | 16.68283 | -136.68460 | 36015 ft | 455 kts | 222° |
| 2026-05-08 01:28 | 16.63228 | -136.72452 | 36006 ft | 456 kts | 222° |
| 2026-05-08 01:28 | 16.58153 | -136.76457 | 36013 ft | 457 kts | 222° |
| 2026-05-08 01:29 | 16.53066 | -136.80468 | 36006 ft | 458 kts | 222° |
| 2026-05-08 01:29 | 16.48001 | -136.84461 | 36007 ft | 459 kts | 222° |
| 2026-05-08 01:30 | 16.42898 | -136.88480 | 36011 ft | 460 kts | 222° |
| 2026-05-08 01:30 | 16.38613 | -136.91853 | 36010 ft | 461 kts | 222° |
| 2026-05-08 01:31 | 16.33534 | -136.95850 | 36009 ft | 462 kts | 222° |
| 2026-05-08 01:31 | 16.28399 | -136.99887 | 36001 ft | 463 kts | 221° |
| 2026-05-08 01:32 | 16.23227 | -137.03952 | 36006 ft | 468 kts | 221° |
| 2026-05-08 01:32 | 16.18016 | -137.08043 | 36004 ft | 469 kts | 221° |
| 2026-05-08 01:33 | 16.12794 | -137.12139 | 35998 ft | 470 kts | 221° |
| 2026-05-08 01:33 | 16.07604 | -137.16207 | 35999 ft | 471 kts | 222° |
| 2026-05-08 01:34 | 16.02358 | -137.20317 | 36000 ft | 472 kts | 222° |
| 2026-05-08 01:34 | 15.97107 | -137.24429 | 36001 ft | 473 kts | 222° |
| 2026-05-08 01:35 | 15.91842 | -137.28548 | 35998 ft | 474 kts | 222° |
| 2026-05-08 01:35 | 15.86567 | -137.32673 | 35988 ft | 475 kts | 222° |
| 2026-05-08 01:36 | 15.81290 | -137.36794 | 36005 ft | 472 kts | 223° |
| 2026-05-08 01:36 | 15.76032 | -137.40899 | 35990 ft | 473 kts | 223° |
| 2026-05-08 01:37 | 15.70803 | -137.44982 | 35989 ft | 474 kts | 223° |
| 2026-05-08 01:37 | 15.65529 | -137.49095 | 36000 ft | 474 kts | 222° |
| 2026-05-08 01:38 | 15.60260 | -137.53200 | 35987 ft | 472 kts | 222° |
| 2026-05-08 01:38 | 15.55006 | -137.57291 | 35996 ft | 471 kts | 222° |
| 2026-05-08 01:39 | 15.49759 | -137.61375 | 35993 ft | 471 kts | 222° |
| 2026-05-08 01:39 | 15.44511 | -137.65458 | 35988 ft | 471 kts | 221° |
| 2026-05-08 01:40 | 15.39267 | -137.69534 | 35988 ft | 471 kts | 221° |
| 2026-05-08 01:40 | 15.34023 | -137.73608 | 35988 ft | 470 kts | 221° |
| 2026-05-08 01:41 | 15.28791 | -137.77669 | 35986 ft | 470 kts | 221° |
| 2026-05-08 01:41 | 15.23585 | -137.81709 | 35981 ft | 470 kts | 221° |
| 2026-05-08 01:42 | 15.18354 | -137.85764 | 35984 ft | 469 kts | 221° |
| 2026-05-08 01:42 | 15.13127 | -137.89815 | 35979 ft | 470 kts | 221° |
| 2026-05-08 01:43 | 15.07880 | -137.93878 | 35981 ft | 470 kts | 221° |
| 2026-05-08 01:43 | 15.02645 | -137.97929 | 35979 ft | 470 kts | 221° |
| 2026-05-08 01:44 | 14.97389 | -138.01960 | 35972 ft | 471 kts | 220° |
| 2026-05-08 01:44 | 14.92037 | -138.05792 | 35977 ft | 470 kts | 219° |
| 2026-05-08 01:45 | 14.86633 | -138.09601 | 35974 ft | 470 kts | 219° |
| 2026-05-08 01:45 | 14.81244 | -138.13436 | 35973 ft | 469 kts | 219° |
| 2026-05-08 01:46 | 14.75880 | -138.17276 | 35975 ft | 469 kts | 219° |
| 2026-05-08 01:46 | 14.70509 | -138.21126 | 35968 ft | 469 kts | 219° |
| 2026-05-08 01:47 | 14.65175 | -138.24946 | 35976 ft | 468 kts | 219° |
| 2026-05-08 01:47 | 14.59821 | -138.28776 | 35968 ft | 468 kts | 219° |
| 2026-05-08 01:48 | 14.51786 | -138.34520 | 35960 ft | 468 kts | 219° |
| 2026-05-08 01:48 | 14.46420 | -138.38354 | 35967 ft | 468 kts | 219° |
| 2026-05-08 01:49 | 14.41082 | -138.42165 | 35966 ft | 469 kts | 219° |
| 2026-05-08 01:49 | 14.35719 | -138.45991 | 35966 ft | 468 kts | 219° |
| 2026-05-08 01:50 | 14.30361 | -138.49811 | 35966 ft | 468 kts | 219° |
| 2026-05-08 01:50 | 14.24992 | -138.53638 | 35966 ft | 468 kts | 219° |
| 2026-05-08 01:51 | 14.19634 | -138.57454 | 35963 ft | 468 kts | 219° |
| 2026-05-08 01:51 | 14.14275 | -138.61269 | 35963 ft | 468 kts | 219° |
| 2026-05-08 01:52 | 14.08920 | -138.65078 | 35966 ft | 468 kts | 219° |
| 2026-05-08 01:52 | 14.03561 | -138.68888 | 35961 ft | 468 kts | 218° |
| 2026-05-08 01:53 | 13.98232 | -138.72675 | 35960 ft | 468 kts | 218° |
| 2026-05-08 01:53 | 13.92875 | -138.76479 | 35960 ft | 468 kts | 218° |
| 2026-05-08 01:54 | 13.87516 | -138.80283 | 35960 ft | 468 kts | 218° |
| 2026-05-08 01:54 | 13.82152 | -138.84088 | 35960 ft | 468 kts | 218° |
| 2026-05-08 01:55 | 13.76792 | -138.87888 | 35958 ft | 468 kts | 218° |
| 2026-05-08 01:55 | 13.71425 | -138.91691 | 35957 ft | 468 kts | 218° |
| 2026-05-08 01:56 | 13.66048 | -138.95498 | 35952 ft | 468 kts | 218° |
| 2026-05-08 01:56 | 13.60717 | -138.99271 | 35952 ft | 468 kts | 218° |
| 2026-05-08 01:57 | 13.55342 | -139.03073 | 35952 ft | 468 kts | 218° |
| 2026-05-08 01:57 | 13.49971 | -139.06869 | 35952 ft | 468 kts | 218° |
| 2026-05-08 01:58 | 13.44604 | -139.10662 | 35952 ft | 467 kts | 218° |
| 2026-05-08 01:58 | 13.39272 | -139.14427 | 35952 ft | 467 kts | 218° |
| 2026-05-08 01:59 | 13.33913 | -139.18209 | 35939 ft | 467 kts | 218° |
| 2026-05-08 01:59 | 13.28553 | -139.21991 | 35947 ft | 468 kts | 218° |
| 2026-05-08 02:00 | 13.23178 | -139.25781 | 35949 ft | 468 kts | 218° |
| 2026-05-08 02:00 | 13.17807 | -139.29565 | 35952 ft | 468 kts | 218° |
| 2026-05-08 02:01 | 13.12435 | -139.33347 | 35949 ft | 468 kts | 217° |
| 2026-05-08 02:01 | 13.07096 | -139.37106 | 35945 ft | 468 kts | 217° |
| 2026-05-08 02:02 | 13.01707 | -139.40897 | 35947 ft | 470 kts | 217° |
| 2026-05-08 02:02 | 12.96300 | -139.44699 | 35947 ft | 470 kts | 217° |
| 2026-05-08 02:03 | 12.90936 | -139.48467 | 35947 ft | 470 kts | 217° |
| 2026-05-08 02:03 | 12.85535 | -139.52261 | 35944 ft | 470 kts | 217° |
| 2026-05-08 02:04 | 12.80128 | -139.56056 | 35944 ft | 470 kts | 217° |
| 2026-05-08 02:04 | 12.74732 | -139.59842 | 35944 ft | 470 kts | 217° |
| 2026-05-08 02:05 | 12.69326 | -139.63633 | 35947 ft | 471 kts | 217° |
| 2026-05-08 02:05 | 12.63915 | -139.67426 | 35947 ft | 471 kts | 217° |
| 2026-05-08 02:06 | 12.58544 | -139.71187 | 35944 ft | 471 kts | 217° |
| 2026-05-08 02:06 | 12.53140 | -139.74971 | 35945 ft | 470 kts | 217° |
| 2026-05-08 02:07 | 12.47733 | -139.78755 | 35941 ft | 470 kts | 217° |
| 2026-05-08 02:07 | 12.42335 | -139.82530 | 35943 ft | 470 kts | 217° |
| 2026-05-08 02:08 | 12.36933 | -139.86307 | 35939 ft | 470 kts | 217° |
| 2026-05-08 02:08 | 12.31549 | -139.90069 | 35940 ft | 472 kts | 217° |
| 2026-05-08 02:09 | 12.26098 | -139.93876 | 35938 ft | 474 kts | 217° |
| 2026-05-08 02:09 | 12.20685 | -139.97654 | 35937 ft | 474 kts | 217° |
| 2026-05-08 02:10 | 12.15221 | -140.01465 | 35939 ft | 474 kts | 217° |
| 2026-05-08 02:10 | 12.09763 | -140.05271 | 35928 ft | 475 kts | 216° |
| 2026-05-08 02:11 | 12.04298 | -140.09081 | 35938 ft | 482 kts | 216° |
| 2026-05-08 02:11 | 11.98717 | -140.12969 | 35933 ft | 484 kts | 216° |
| 2026-05-08 02:12 | 11.93161 | -140.16836 | 35936 ft | 483 kts | 216° |
| 2026-05-08 02:12 | 11.87597 | -140.20707 | 35930 ft | 483 kts | 216° |
| 2026-05-08 02:13 | 11.82046 | -140.24568 | 35930 ft | 483 kts | 216° |
| 2026-05-08 02:13 | 11.76491 | -140.28430 | 35930 ft | 483 kts | 216° |
| 2026-05-08 02:14 | 11.70978 | -140.32261 | 35933 ft | 483 kts | 216° |
| 2026-05-08 02:14 | 11.65423 | -140.36118 | 35936 ft | 483 kts | 216° |
| 2026-05-08 02:15 | 11.59870 | -140.39973 | 35928 ft | 482 kts | 216° |
| 2026-05-08 02:15 | 11.54320 | -140.43824 | 35932 ft | 481 kts | 216° |
| 2026-05-08 02:16 | 11.48817 | -140.47640 | 35933 ft | 481 kts | 216° |
| 2026-05-08 02:16 | 11.43285 | -140.51474 | 35932 ft | 481 kts | 216° |
| 2026-05-08 02:17 | 11.37748 | -140.55311 | 35924 ft | 481 kts | 216° |
| 2026-05-08 02:17 | 11.32213 | -140.59144 | 35927 ft | 481 kts | 216° |
| 2026-05-08 02:18 | 11.27610 | -140.62330 | 35930 ft | 481 kts | 216° |
| 2026-05-08 02:18 | 11.22069 | -140.66164 | 35929 ft | 481 kts | 216° |
| 2026-05-08 02:19 | 11.15635 | -140.70612 | 35926 ft | 480 kts | 216° |
| 2026-05-08 02:19 | 11.11029 | -140.73796 | 35932 ft | 480 kts | 216° |
| 2026-05-08 02:20 | 11.05501 | -140.77616 | 35922 ft | 480 kts | 216° |
| 2026-05-08 02:20 | 10.99967 | -140.81438 | 35929 ft | 481 kts | 216° |
| 2026-05-08 02:21 | 10.94425 | -140.85263 | 35926 ft | 481 kts | 216° |
| 2026-05-08 02:21 | 10.88887 | -140.89084 | 35917 ft | 480 kts | 215° |
| 2026-05-08 02:22 | 10.83361 | -140.92895 | 35915 ft | 479 kts | 215° |
| 2026-05-08 02:22 | 10.77835 | -140.96704 | 35919 ft | 480 kts | 215° |
| 2026-05-08 02:23 | 10.72332 | -141.00497 | 35925 ft | 480 kts | 215° |
| 2026-05-08 02:23 | 10.66797 | -141.04309 | 35914 ft | 480 kts | 215° |
| 2026-05-08 02:24 | 10.61260 | -141.08120 | 35915 ft | 480 kts | 215° |
| 2026-05-08 02:24 | 10.55728 | -141.11927 | 35913 ft | 480 kts | 215° |
| 2026-05-08 02:25 | 10.50183 | -141.15740 | 35914 ft | 481 kts | 215° |
| 2026-05-08 02:25 | 10.44638 | -141.19553 | 35919 ft | 481 kts | 215° |
| 2026-05-08 02:26 | 10.39133 | -141.23336 | 35920 ft | 481 kts | 215° |
| 2026-05-08 02:26 | 10.33603 | -141.27170 | 35917 ft | 480 kts | 217° |
| 2026-05-08 02:27 | 10.28314 | -141.31332 | 35917 ft | 480 kts | 220° |
| 2026-05-08 02:27 | 10.23102 | -141.35600 | 35910 ft | 481 kts | 219° |
| 2026-05-08 02:28 | 10.17863 | -141.39821 | 35910 ft | 481 kts | 219° |
| 2026-05-08 02:28 | 10.12624 | -141.43982 | 35914 ft | 480 kts | 219° |
| 2026-05-08 02:29 | 10.07343 | -141.48159 | 35914 ft | 480 kts | 219° |
| 2026-05-08 02:29 | 10.02069 | -141.52328 | 35910 ft | 481 kts | 219° |
| 2026-05-08 02:30 | 9.96789 | -141.56503 | 35918 ft | 481 kts | 219° |
| 2026-05-08 02:30 | 9.91517 | -141.60672 | 35909 ft | 480 kts | 218° |
| 2026-05-08 02:31 | 9.86235 | -141.64847 | 35914 ft | 481 kts | 218° |
| 2026-05-08 02:31 | 9.80989 | -141.68992 | 35915 ft | 480 kts | 218° |
| 2026-05-08 02:32 | 9.75716 | -141.73155 | 35904 ft | 480 kts | 218° |
| 2026-05-08 02:32 | 9.70433 | -141.77325 | 35907 ft | 481 kts | 218° |
| 2026-05-08 02:33 | 9.65156 | -141.81488 | 35903 ft | 480 kts | 218° |
| 2026-05-08 02:33 | 9.59870 | -141.85658 | 35916 ft | 481 kts | 218° |
| 2026-05-08 02:34 | 9.54615 | -141.89800 | 35917 ft | 481 kts | 218° |
| 2026-05-08 02:34 | 9.49329 | -141.93966 | 35917 ft | 481 kts | 218° |
| 2026-05-08 02:35 | 9.44036 | -141.98135 | 35916 ft | 481 kts | 218° |
| 2026-05-08 02:35 | 9.38746 | -142.02301 | 35914 ft | 481 kts | 218° |
| 2026-05-08 02:36 | 9.33447 | -142.06472 | 35915 ft | 482 kts | 218° |
| 2026-05-08 02:36 | 9.28147 | -142.10642 | 35915 ft | 482 kts | 218° |
| 2026-05-08 02:37 | 9.22882 | -142.14783 | 35914 ft | 482 kts | 218° |
| 2026-05-08 02:37 | 9.17572 | -142.18958 | 35913 ft | 482 kts | 218° |
| 2026-05-08 02:38 | 9.12270 | -142.23124 | 35912 ft | 482 kts | 218° |
| 2026-05-08 02:38 | 9.06970 | -142.27288 | 35912 ft | 482 kts | 218° |
| 2026-05-08 02:39 | 9.01668 | -142.31452 | 35914 ft | 482 kts | 218° |
| 2026-05-08 02:39 | 8.96361 | -142.35617 | 35910 ft | 483 kts | 218° |
| 2026-05-08 02:40 | 8.91046 | -142.39788 | 35914 ft | 483 kts | 218° |
| 2026-05-08 02:40 | 8.85725 | -142.43961 | 35914 ft | 483 kts | 218° |
| 2026-05-08 02:41 | 8.80444 | -142.48102 | 35911 ft | 483 kts | 218° |
| 2026-05-08 02:41 | 8.75123 | -142.52273 | 35911 ft | 484 kts | 218° |
| 2026-05-08 02:42 | 8.69801 | -142.56444 | 35906 ft | 485 kts | 217° |
| 2026-05-08 02:42 | 8.64459 | -142.60627 | 35905 ft | 485 kts | 217° |
| 2026-05-08 02:43 | 8.59110 | -142.64814 | 35903 ft | 486 kts | 217° |
| 2026-05-08 02:43 | 8.53766 | -142.68996 | 35905 ft | 486 kts | 217° |
| 2026-05-08 02:44 | 8.48419 | -142.73180 | 35903 ft | 485 kts | 217° |
| 2026-05-08 02:44 | 8.43067 | -142.77366 | 35901 ft | 486 kts | 217° |
| 2026-05-08 02:45 | 8.37689 | -142.81570 | 35906 ft | 490 kts | 217° |
| 2026-05-08 02:45 | 8.32334 | -142.85754 | 35905 ft | 490 kts | 217° |
| 2026-05-08 02:46 | 8.26934 | -142.89973 | 35909 ft | 490 kts | 217° |
| 2026-05-08 02:46 | 8.21535 | -142.94189 | 35909 ft | 490 kts | 217° |
| 2026-05-08 02:47 | 8.16135 | -142.98406 | 35903 ft | 490 kts | 217° |
| 2026-05-08 02:47 | 8.10725 | -143.02627 | 35907 ft | 497 kts | 217° |
| 2026-05-08 02:48 | 8.05234 | -143.06910 | 35906 ft | 499 kts | 217° |
| 2026-05-08 02:48 | 7.99733 | -143.11200 | 35906 ft | 499 kts | 217° |
| 2026-05-08 02:49 | 7.94234 | -143.15487 | 35905 ft | 499 kts | 217° |
| 2026-05-08 02:49 | 7.88734 | -143.19773 | 35900 ft | 499 kts | 217° |
| 2026-05-08 02:50 | 7.83267 | -143.24033 | 35902 ft | 500 kts | 217° |
| 2026-05-08 02:50 | 7.77745 | -143.28333 | 35907 ft | 501 kts | 217° |
| 2026-05-08 02:51 | 7.72211 | -143.32641 | 35908 ft | 502 kts | 217° |
| 2026-05-08 02:51 | 7.66675 | -143.36950 | 35903 ft | 502 kts | 217° |
| 2026-05-08 02:52 | 7.61141 | -143.41255 | 35907 ft | 503 kts | 217° |
| 2026-05-08 02:52 | 7.55586 | -143.45575 | 35903 ft | 505 kts | 217° |
| 2026-05-08 02:53 | 7.50048 | -143.49881 | 35904 ft | 506 kts | 217° |
| 2026-05-08 02:53 | 7.44473 | -143.54214 | 35900 ft | 506 kts | 217° |
| 2026-05-08 02:54 | 7.38899 | -143.58545 | 35905 ft | 506 kts | 217° |
| 2026-05-08 02:54 | 7.33323 | -143.62876 | 35902 ft | 506 kts | 217° |
| 2026-05-08 02:55 | 7.24960 | -143.69369 | 35902 ft | 506 kts | 217° |
| 2026-05-08 02:56 | 7.19413 | -143.73674 | 35900 ft | 506 kts | 217° |
| 2026-05-08 02:56 | 7.13827 | -143.78007 | 35900 ft | 507 kts | 216° |
| 2026-05-08 02:57 | 7.08233 | -143.82345 | 35897 ft | 508 kts | 216° |
| 2026-05-08 02:57 | 7.02625 | -143.86693 | 35897 ft | 509 kts | 216° |
| 2026-05-08 02:58 | 6.96998 | -143.91054 | 35897 ft | 510 kts | 216° |
| 2026-05-08 02:58 | 6.91380 | -143.95407 | 35897 ft | 510 kts | 216° |
| 2026-05-08 02:59 | 6.85794 | -143.99734 | 35897 ft | 510 kts | 216° |
| 2026-05-08 02:59 | 6.80159 | -144.04098 | 35897 ft | 509 kts | 217° |
| 2026-05-08 03:00 | 6.74538 | -144.08449 | 35900 ft | 510 kts | 217° |
| 2026-05-08 03:00 | 6.68924 | -144.12794 | 35902 ft | 512 kts | 217° |
| 2026-05-08 03:01 | 6.63267 | -144.17171 | 35900 ft | 513 kts | 217° |
| 2026-05-08 03:01 | 6.57614 | -144.21543 | 35897 ft | 513 kts | 217° |
| 2026-05-08 03:02 | 6.51959 | -144.25915 | 35896 ft | 512 kts | 217° |
| 2026-05-08 03:02 | 6.46334 | -144.30264 | 35895 ft | 509 kts | 217° |
| 2026-05-08 03:03 | 6.40720 | -144.34602 | 35898 ft | 508 kts | 217° |
| 2026-05-08 03:03 | 6.35148 | -144.38908 | 35897 ft | 508 kts | 217° |
| 2026-05-08 03:04 | 6.29543 | -144.43236 | 35898 ft | 508 kts | 217° |
| 2026-05-08 03:04 | 6.23930 | -144.47570 | 35898 ft | 509 kts | 217° |
| 2026-05-08 03:05 | 6.18312 | -144.51907 | 35891 ft | 509 kts | 217° |
| 2026-05-08 03:05 | 6.12686 | -144.56248 | 35893 ft | 511 kts | 217° |
| 2026-05-08 03:06 | 6.07039 | -144.60605 | 35893 ft | 512 kts | 217° |
| 2026-05-08 03:06 | 6.01388 | -144.64963 | 35895 ft | 511 kts | 217° |
| 2026-05-08 03:07 | 5.95780 | -144.69287 | 35897 ft | 511 kts | 217° |
| 2026-05-08 03:07 | 5.90130 | -144.73642 | 35897 ft | 511 kts | 217° |
| 2026-05-08 03:08 | 5.85427 | -144.77267 | 35893 ft | 513 kts | 217° |
| 2026-05-08 03:08 | 5.79766 | -144.81629 | 35891 ft | 513 kts | 217° |
| 2026-05-08 03:09 | 5.74087 | -144.86003 | 35894 ft | 513 kts | 217° |
| 2026-05-08 03:09 | 5.68437 | -144.90354 | 35894 ft | 513 kts | 217° |
| 2026-05-08 03:10 | 5.62757 | -144.94727 | 35891 ft | 513 kts | 217° |
| 2026-05-08 03:10 | 5.57082 | -144.99095 | 35891 ft | 512 kts | 218° |
| 2026-05-08 03:11 | 5.51428 | -145.03446 | 35892 ft | 512 kts | 217° |
| 2026-05-08 03:11 | 5.45777 | -145.07794 | 35892 ft | 512 kts | 217° |
| 2026-05-08 03:12 | 5.40127 | -145.12139 | 35893 ft | 512 kts | 217° |
| 2026-05-08 03:12 | 5.34505 | -145.16462 | 35893 ft | 512 kts | 217° |
| 2026-05-08 03:13 | 5.28847 | -145.20812 | 35897 ft | 511 kts | 217° |
| 2026-05-08 03:13 | 5.23210 | -145.25145 | 35896 ft | 510 kts | 217° |
| 2026-05-08 03:14 | 5.17570 | -145.29478 | 35890 ft | 510 kts | 217° |
| 2026-05-08 03:14 | 5.11962 | -145.33787 | 35890 ft | 510 kts | 217° |
| 2026-05-08 03:15 | 5.06314 | -145.38124 | 35892 ft | 510 kts | 217° |
| 2026-05-08 03:15 | 5.00678 | -145.42453 | 35892 ft | 510 kts | 217° |
| 2026-05-08 03:16 | 4.95034 | -145.46790 | 35892 ft | 510 kts | 217° |
| 2026-05-08 03:16 | 4.89433 | -145.51092 | 35892 ft | 510 kts | 217° |
| 2026-05-08 03:17 | 4.83792 | -145.55423 | 35889 ft | 512 kts | 217° |
| 2026-05-08 03:17 | 4.78126 | -145.59773 | 35889 ft | 513 kts | 217° |
| 2026-05-08 03:18 | 4.72450 | -145.64131 | 35893 ft | 513 kts | 217° |
| 2026-05-08 03:18 | 4.66824 | -145.68449 | 35891 ft | 511 kts | 217° |
| 2026-05-08 03:19 | 4.61191 | -145.72771 | 35892 ft | 510 kts | 217° |
| 2026-05-08 03:19 | 4.55555 | -145.77095 | 35892 ft | 510 kts | 217° |
| 2026-05-08 03:20 | 4.49921 | -145.81416 | 35892 ft | 510 kts | 218° |
| 2026-05-08 03:20 | 4.44277 | -145.85744 | 35892 ft | 511 kts | 218° |
| 2026-05-08 03:21 | 4.38635 | -145.90071 | 35890 ft | 511 kts | 218° |
| 2026-05-08 03:21 | 4.32986 | -145.94401 | 35889 ft | 511 kts | 218° |
| 2026-05-08 03:22 | 4.27334 | -145.98733 | 35889 ft | 511 kts | 218° |
| 2026-05-08 03:22 | 4.21722 | -146.03034 | 35889 ft | 511 kts | 218° |
| 2026-05-08 03:23 | 4.16067 | -146.07366 | 35892 ft | 511 kts | 218° |
| 2026-05-08 03:23 | 4.10423 | -146.11690 | 35891 ft | 511 kts | 217° |
| 2026-05-08 03:24 | 4.04768 | -146.16021 | 35890 ft | 511 kts | 217° |
| 2026-05-08 03:24 | 3.99114 | -146.20351 | 35889 ft | 512 kts | 217° |
| 2026-05-08 03:25 | 3.93455 | -146.24683 | 35888 ft | 512 kts | 217° |
| 2026-05-08 03:25 | 3.87790 | -146.29020 | 35889 ft | 512 kts | 217° |
| 2026-05-08 03:26 | 3.82168 | -146.33322 | 35890 ft | 512 kts | 217° |
| 2026-05-08 03:26 | 3.76500 | -146.37660 | 35889 ft | 512 kts | 217° |
| 2026-05-08 03:27 | 3.70834 | -146.41994 | 35888 ft | 511 kts | 217° |
| 2026-05-08 03:27 | 3.65180 | -146.46319 | 35891 ft | 511 kts | 217° |
| 2026-05-08 03:28 | 3.59557 | -146.50620 | 35888 ft | 511 kts | 217° |
| 2026-05-08 03:28 | 3.53911 | -146.54937 | 35889 ft | 511 kts | 217° |
| 2026-05-08 03:29 | 3.48263 | -146.59256 | 35890 ft | 511 kts | 217° |
| 2026-05-08 03:29 | 3.42601 | -146.63584 | 35889 ft | 511 kts | 217° |
| 2026-05-08 03:30 | 3.34112 | -146.70073 | 35892 ft | 512 kts | 217° |
| 2026-05-08 03:31 | 3.22832 | -146.78692 | 35889 ft | 511 kts | 217° |
| 2026-05-08 03:32 | 3.14342 | -146.85177 | 35893 ft | 511 kts | 217° |
| 2026-05-08 03:32 | 3.08669 | -146.89511 | 35892 ft | 513 kts | 217° |
| 2026-05-08 03:33 | 3.02984 | -146.93852 | 35889 ft | 514 kts | 217° |
| 2026-05-08 03:33 | 2.97300 | -146.98192 | 35889 ft | 514 kts | 217° |
| 2026-05-08 03:34 | 2.91646 | -147.02509 | 35889 ft | 514 kts | 217° |
| 2026-05-08 03:34 | 2.85967 | -147.06844 | 35889 ft | 513 kts | 217° |
| 2026-05-08 03:35 | 2.80296 | -147.11173 | 35887 ft | 512 kts | 217° |
| 2026-05-08 03:35 | 2.74622 | -147.15503 | 35887 ft | 513 kts | 217° |
| 2026-05-08 03:36 | 2.68951 | -147.19831 | 35887 ft | 513 kts | 217° |
| 2026-05-08 03:36 | 2.63270 | -147.24165 | 35886 ft | 513 kts | 217° |
| 2026-05-08 03:37 | 2.57588 | -147.28500 | 35886 ft | 513 kts | 217° |
| 2026-05-08 03:37 | 2.51923 | -147.32821 | 35886 ft | 511 kts | 217° |
| 2026-05-08 03:38 | 2.46309 | -147.37104 | 35886 ft | 510 kts | 217° |
| 2026-05-08 03:38 | 2.40659 | -147.41413 | 35884 ft | 511 kts | 217° |
| 2026-05-08 03:39 | 2.35008 | -147.45722 | 35884 ft | 511 kts | 217° |
| 2026-05-08 03:39 | 2.29357 | -147.50031 | 35884 ft | 511 kts | 217° |
| 2026-05-08 03:40 | 2.23705 | -147.54339 | 35884 ft | 511 kts | 217° |
| 2026-05-08 03:40 | 2.18058 | -147.58645 | 35884 ft | 510 kts | 217° |
| 2026-05-08 03:41 | 2.12418 | -147.62944 | 35884 ft | 510 kts | 217° |
| 2026-05-08 03:41 | 2.06809 | -147.67219 | 35884 ft | 510 kts | 217° |
| 2026-05-08 03:42 | 2.01160 | -147.71525 | 35884 ft | 511 kts | 217° |
| 2026-05-08 03:42 | 1.95491 | -147.75844 | 35883 ft | 511 kts | 217° |
| 2026-05-08 03:43 | 1.89845 | -147.80146 | 35882 ft | 506 kts | 218° |
| 2026-05-08 03:43 | 1.84272 | -147.84392 | 35883 ft | 501 kts | 218° |
| 2026-05-08 03:44 | 1.78764 | -147.88589 | 35885 ft | 501 kts | 218° |
| 2026-05-08 03:44 | 1.73211 | -147.92820 | 35885 ft | 501 kts | 218° |
| 2026-05-08 03:45 | 1.67629 | -147.97073 | 35883 ft | 508 kts | 217° |
| 2026-05-08 03:45 | 1.61988 | -148.01369 | 35881 ft | 510 kts | 217° |
| 2026-05-08 03:46 | 1.56424 | -148.05605 | 35879 ft | 500 kts | 218° |
| 2026-05-08 03:46 | 1.50916 | -148.09800 | 35878 ft | 496 kts | 218° |
| 2026-05-08 03:47 | 1.45435 | -148.13975 | 35878 ft | 496 kts | 218° |
| 2026-05-08 03:47 | 1.39946 | -148.18155 | 35878 ft | 496 kts | 218° |
| 2026-05-08 03:48 | 1.34450 | -148.22340 | 35878 ft | 497 kts | 218° |
| 2026-05-08 03:48 | 1.28923 | -148.26549 | 35878 ft | 500 kts | 218° |
| 2026-05-08 03:49 | 1.23439 | -148.30723 | 35878 ft | 497 kts | 218° |
| 2026-05-08 03:49 | 1.17938 | -148.34912 | 35878 ft | 496 kts | 218° |
| 2026-05-08 03:50 | 1.12437 | -148.39100 | 35880 ft | 496 kts | 218° |
| 2026-05-08 03:50 | 1.06943 | -148.43282 | 35881 ft | 496 kts | 218° |
| 2026-05-08 03:51 | 1.01485 | -148.47437 | 35881 ft | 496 kts | 218° |
| 2026-05-08 03:51 | 0.95973 | -148.51632 | 35880 ft | 498 kts | 218° |
| 2026-05-08 03:52 | 0.90453 | -148.55834 | 35881 ft | 498 kts | 218° |
| 2026-05-08 03:52 | 0.84936 | -148.60033 | 35881 ft | 498 kts | 218° |
| 2026-05-08 03:53 | 0.79414 | -148.64236 | 35881 ft | 498 kts | 218° |
| 2026-05-08 03:53 | 0.73892 | -148.68438 | 35881 ft | 499 kts | 218° |
| 2026-05-08 03:54 | 0.68403 | -148.72615 | 35881 ft | 499 kts | 218° |
| 2026-05-08 03:54 | 0.62885 | -148.76815 | 35881 ft | 498 kts | 218° |
| 2026-05-08 03:55 | 0.57380 | -148.81004 | 35883 ft | 497 kts | 218° |
| 2026-05-08 03:55 | 0.51876 | -148.85192 | 35884 ft | 497 kts | 218° |
| 2026-05-08 03:56 | 0.46377 | -148.89377 | 35884 ft | 497 kts | 218° |
| 2026-05-08 03:56 | 0.41803 | -148.92858 | 35884 ft | 497 kts | 218° |
| 2026-05-08 03:57 | 0.36301 | -148.97044 | 35882 ft | 497 kts | 218° |
| 2026-05-08 03:57 | 0.29910 | -149.01907 | 35883 ft | 497 kts | 218° |
| 2026-05-08 03:58 | 0.25301 | -149.05414 | 35884 ft | 498 kts | 218° |
| 2026-05-08 03:58 | 0.19777 | -149.09617 | 35884 ft | 499 kts | 218° |
| 2026-05-08 03:59 | 0.14292 | -149.13791 | 35882 ft | 499 kts | 218° |
| 2026-05-08 03:59 | 0.08769 | -149.17993 | 35884 ft | 499 kts | 218° |
| 2026-05-08 04:00 | 0.03234 | -149.22204 | 35884 ft | 499 kts | 218° |
| 2026-05-08 04:00 | -0.02287 | -149.26406 | 35886 ft | 498 kts | 218° |
| 2026-05-08 04:01 | -0.07793 | -149.30595 | 35886 ft | 496 kts | 218° |
| 2026-05-08 04:01 | -0.13288 | -149.34776 | 35884 ft | 498 kts | 218° |
| 2026-05-08 04:02 | -0.18816 | -149.38982 | 35884 ft | 500 kts | 218° |
| 2026-05-08 04:02 | -0.24313 | -149.43165 | 35883 ft | 500 kts | 218° |
| 2026-05-08 04:03 | -0.29851 | -149.47379 | 35886 ft | 500 kts | 218° |
| 2026-05-08 04:03 | -0.38169 | -149.53669 | 35886 ft | 500 kts | 217° |
| 2026-05-08 04:04 | -0.43744 | -149.57829 | 35886 ft | 500 kts | 217° |
| 2026-05-08 04:04 | -0.49316 | -149.61992 | 35886 ft | 501 kts | 217° |
| 2026-05-08 04:05 | -0.54875 | -149.66155 | 35884 ft | 502 kts | 217° |
| 2026-05-08 04:05 | -0.60466 | -149.70345 | 35884 ft | 503 kts | 217° |
| 2026-05-08 04:06 | -0.66065 | -149.74540 | 35883 ft | 503 kts | 217° |
| 2026-05-08 04:06 | -0.71649 | -149.78725 | 35886 ft | 501 kts | 217° |
| 2026-05-08 04:07 | -0.77218 | -149.82898 | 35886 ft | 500 kts | 218° |
| 2026-05-08 04:07 | -0.82761 | -149.87053 | 35886 ft | 500 kts | 218° |
| 2026-05-08 04:08 | -0.88337 | -149.91232 | 35886 ft | 500 kts | 218° |
| 2026-05-08 04:08 | -0.93900 | -149.95402 | 35886 ft | 500 kts | 217° |
| 2026-05-08 04:09 | -0.99471 | -149.99577 | 35884 ft | 500 kts | 217° |
| 2026-05-08 04:09 | -1.05027 | -150.03786 | 35889 ft | 500 kts | 218° |
| 2026-05-08 04:10 | -1.10523 | -150.07987 | 35886 ft | 500 kts | 218° |
| 2026-05-08 04:10 | -1.16053 | -150.12214 | 35886 ft | 501 kts | 218° |
| 2026-05-08 04:11 | -1.21588 | -150.16439 | 35886 ft | 500 kts | 218° |
| 2026-05-08 04:11 | -1.27129 | -150.20665 | 35889 ft | 500 kts | 218° |
| 2026-05-08 04:12 | -1.32658 | -150.24882 | 35884 ft | 500 kts | 218° |
| 2026-05-08 04:12 | -1.38193 | -150.29105 | 35888 ft | 499 kts | 218° |
| 2026-05-08 04:13 | -1.43712 | -150.33315 | 35889 ft | 499 kts | 218° |
| 2026-05-08 04:13 | -1.49194 | -150.37497 | 35889 ft | 498 kts | 218° |
| 2026-05-08 04:14 | -1.54705 | -150.41702 | 35889 ft | 498 kts | 218° |
| 2026-05-08 04:14 | -1.60228 | -150.45916 | 35889 ft | 499 kts | 218° |
| 2026-05-08 04:15 | -1.65748 | -150.50129 | 35889 ft | 499 kts | 218° |
| 2026-05-08 04:15 | -1.71228 | -150.54311 | 35890 ft | 496 kts | 218° |
| 2026-05-08 04:16 | -1.76706 | -150.58491 | 35892 ft | 494 kts | 218° |
| 2026-05-08 04:16 | -1.82180 | -150.62670 | 35892 ft | 495 kts | 218° |
| 2026-05-08 04:17 | -1.87651 | -150.66846 | 35889 ft | 495 kts | 218° |
| 2026-05-08 04:17 | -1.93130 | -150.71029 | 35889 ft | 495 kts | 218° |
| 2026-05-08 04:18 | -1.98605 | -150.75209 | 35888 ft | 494 kts | 218° |
| 2026-05-08 04:18 | -2.04042 | -150.79360 | 35889 ft | 494 kts | 218° |
| 2026-05-08 04:19 | -2.09503 | -150.83530 | 35890 ft | 493 kts | 218° |
| 2026-05-08 04:19 | -2.14949 | -150.87689 | 35889 ft | 493 kts | 218° |
| 2026-05-08 04:20 | -2.20391 | -150.91845 | 35891 ft | 492 kts | 218° |
| 2026-05-08 04:20 | -2.25845 | -150.96011 | 35891 ft | 493 kts | 218° |
| 2026-05-08 04:21 | -2.31295 | -151.00174 | 35895 ft | 493 kts | 218° |
| 2026-05-08 04:21 | -2.36741 | -151.04335 | 35894 ft | 492 kts | 218° |
| 2026-05-08 04:22 | -2.42162 | -151.08477 | 35887 ft | 488 kts | 218° |
| 2026-05-08 04:22 | -2.47536 | -151.12583 | 35889 ft | 488 kts | 218° |
| 2026-05-08 04:23 | -2.52937 | -151.16711 | 35890 ft | 489 kts | 218° |
| 2026-05-08 04:23 | -2.58341 | -151.20841 | 35889 ft | 489 kts | 218° |
| 2026-05-08 04:24 | -2.63743 | -151.24970 | 35886 ft | 488 kts | 218° |
| 2026-05-08 04:24 | -2.69143 | -151.29098 | 35889 ft | 488 kts | 217° |
| 2026-05-08 04:25 | -2.74506 | -151.33199 | 35889 ft | 488 kts | 217° |
| 2026-05-08 04:25 | -2.79901 | -151.37324 | 35885 ft | 487 kts | 217° |
| 2026-05-08 04:26 | -2.85299 | -151.41451 | 35885 ft | 487 kts | 217° |
| 2026-05-08 04:26 | -2.90689 | -151.45574 | 35887 ft | 488 kts | 217° |
| 2026-05-08 04:27 | -2.96089 | -151.49704 | 35890 ft | 488 kts | 217° |
| 2026-05-08 04:27 | -3.01458 | -151.53811 | 35886 ft | 488 kts | 217° |
| 2026-05-08 04:28 | -3.06855 | -151.57940 | 35885 ft | 487 kts | 217° |
| 2026-05-08 04:28 | -3.12245 | -151.62065 | 35887 ft | 488 kts | 217° |
| 2026-05-08 04:29 | -3.17637 | -151.66192 | 35886 ft | 488 kts | 217° |
| 2026-05-08 04:29 | -3.23040 | -151.70327 | 35886 ft | 487 kts | 217° |
| 2026-05-08 04:30 | -3.28402 | -151.74431 | 35891 ft | 488 kts | 217° |
| 2026-05-08 04:30 | -3.33790 | -151.78557 | 35890 ft | 488 kts | 217° |
| 2026-05-08 04:31 | -3.39184 | -151.82687 | 35886 ft | 488 kts | 217° |
| 2026-05-08 04:31 | -3.44589 | -151.86826 | 35888 ft | 489 kts | 217° |
| 2026-05-08 04:32 | -3.50000 | -151.90971 | 35889 ft | 490 kts | 217° |
| 2026-05-08 04:32 | -3.55405 | -151.95112 | 35888 ft | 490 kts | 217° |
| 2026-05-08 04:33 | -3.60788 | -151.99235 | 35887 ft | 490 kts | 217° |
| 2026-05-08 04:33 | -3.66211 | -152.03391 | 35887 ft | 491 kts | 217° |
| 2026-05-08 04:34 | -3.71633 | -152.07547 | 35889 ft | 491 kts | 217° |
| 2026-05-08 04:34 | -3.77042 | -152.11693 | 35884 ft | 488 kts | 217° |
| 2026-05-08 04:35 | -3.82441 | -152.15832 | 35884 ft | 488 kts | 217° |
| 2026-05-08 04:35 | -3.87835 | -152.19967 | 35884 ft | 489 kts | 217° |
| 2026-05-08 04:36 | -3.93197 | -152.24079 | 35886 ft | 488 kts | 217° |
| 2026-05-08 04:36 | -3.98599 | -152.28223 | 35888 ft | 489 kts | 217° |
| 2026-05-08 04:37 | -4.04001 | -152.32367 | 35887 ft | 489 kts | 217° |
| 2026-05-08 04:37 | -4.09400 | -152.36510 | 35884 ft | 489 kts | 217° |
| 2026-05-08 04:38 | -4.14800 | -152.40654 | 35888 ft | 488 kts | 217° |
| 2026-05-08 04:38 | -4.20208 | -152.44805 | 35888 ft | 489 kts | 217° |
| 2026-05-08 04:39 | -4.25562 | -152.48915 | 35888 ft | 489 kts | 217° |
| 2026-05-08 04:39 | -4.30961 | -152.53061 | 35891 ft | 488 kts | 217° |
| 2026-05-08 04:40 | -4.36363 | -152.57209 | 35887 ft | 489 kts | 217° |
| 2026-05-08 04:40 | -4.41778 | -152.61368 | 35885 ft | 490 kts | 217° |
| 2026-05-08 04:41 | -4.47147 | -152.65494 | 35885 ft | 489 kts | 217° |
| 2026-05-08 04:41 | -4.52550 | -152.69645 | 35878 ft | 489 kts | 217° |
| 2026-05-08 04:42 | -4.57952 | -152.73797 | 35887 ft | 490 kts | 217° |
| 2026-05-08 04:42 | -4.63360 | -152.77955 | 35885 ft | 489 kts | 217° |
| 2026-05-08 04:43 | -4.68760 | -152.82106 | 35886 ft | 489 kts | 217° |
| 2026-05-08 04:43 | -4.74163 | -152.86261 | 35886 ft | 490 kts | 217° |
| 2026-05-08 04:44 | -4.79539 | -152.90396 | 35888 ft | 489 kts | 217° |
| 2026-05-08 04:44 | -4.84942 | -152.94553 | 35888 ft | 488 kts | 217° |
| 2026-05-08 04:45 | -4.90338 | -152.98705 | 35890 ft | 489 kts | 217° |
| 2026-05-08 04:45 | -4.94821 | -153.02155 | 35888 ft | 488 kts | 217° |
| 2026-05-08 04:46 | -5.00152 | -153.06395 | 35887 ft | 489 kts | 222° |
| 2026-05-08 04:46 | -5.05133 | -153.11060 | 35882 ft | 489 kts | 223° |
| 2026-05-08 04:47 | -5.10011 | -153.15763 | 35888 ft | 489 kts | 223° |
| 2026-05-08 04:47 | -5.14917 | -153.20516 | 35888 ft | 489 kts | 223° |
| 2026-05-08 04:48 | -5.19810 | -153.25248 | 35891 ft | 489 kts | 223° |
| 2026-05-08 04:48 | -5.24712 | -153.29982 | 35892 ft | 488 kts | 223° |
| 2026-05-08 04:49 | -5.29605 | -153.34705 | 35895 ft | 488 kts | 223° |
| 2026-05-08 04:49 | -5.34507 | -153.39437 | 35896 ft | 489 kts | 223° |
| 2026-05-08 04:50 | -5.39374 | -153.44138 | 35892 ft | 489 kts | 223° |
| 2026-05-08 04:50 | -5.44278 | -153.48876 | 35889 ft | 489 kts | 223° |
| 2026-05-08 04:51 | -5.49179 | -153.53613 | 35890 ft | 488 kts | 224° |
| 2026-05-08 04:51 | -5.54074 | -153.58344 | 35890 ft | 488 kts | 224° |
| 2026-05-08 04:52 | -5.58962 | -153.63070 | 35893 ft | 487 kts | 224° |
| 2026-05-08 04:52 | -5.63852 | -153.67799 | 35893 ft | 488 kts | 224° |
| 2026-05-08 04:53 | -5.68708 | -153.72497 | 35895 ft | 488 kts | 224° |
| 2026-05-08 04:53 | -5.73597 | -153.77227 | 35897 ft | 487 kts | 224° |
| 2026-05-08 04:54 | -5.78484 | -153.81956 | 35895 ft | 488 kts | 224° |
| 2026-05-08 04:54 | -5.83381 | -153.86696 | 35895 ft | 488 kts | 224° |
| 2026-05-08 04:55 | -5.88266 | -153.91427 | 35897 ft | 486 kts | 224° |
| 2026-05-08 04:55 | -5.93146 | -153.96153 | 35895 ft | 487 kts | 224° |
| 2026-05-08 04:56 | -5.98016 | -154.00871 | 35895 ft | 487 kts | 224° |
| 2026-05-08 04:56 | -6.02866 | -154.05571 | 35894 ft | 486 kts | 224° |
| 2026-05-08 04:57 | -6.07746 | -154.10301 | 35898 ft | 487 kts | 224° |
| 2026-05-08 04:57 | -6.12620 | -154.15027 | 35897 ft | 487 kts | 224° |
| 2026-05-08 04:58 | -6.17503 | -154.19762 | 35897 ft | 486 kts | 224° |
| 2026-05-08 04:58 | -6.22377 | -154.24490 | 35897 ft | 487 kts | 224° |
| 2026-05-08 04:59 | -6.27217 | -154.29186 | 35897 ft | 487 kts | 224° |
| 2026-05-08 04:59 | -6.32104 | -154.33930 | 35897 ft | 486 kts | 224° |
| 2026-05-08 05:00 | -6.36977 | -154.38661 | 35900 ft | 487 kts | 224° |
| 2026-05-08 05:00 | -6.41851 | -154.43395 | 35900 ft | 487 kts | 224° |
| 2026-05-08 05:01 | -6.46727 | -154.48131 | 35897 ft | 487 kts | 224° |
| 2026-05-08 05:01 | -6.51571 | -154.52838 | 35898 ft | 487 kts | 224° |
| 2026-05-08 05:02 | -6.56439 | -154.57570 | 35896 ft | 487 kts | 224° |
| 2026-05-08 05:02 | -6.61319 | -154.62313 | 35898 ft | 487 kts | 224° |
| 2026-05-08 05:03 | -6.66187 | -154.67048 | 35902 ft | 487 kts | 224° |
| 2026-05-08 05:03 | -6.71063 | -154.71791 | 35899 ft | 487 kts | 224° |
| 2026-05-08 05:04 | -6.75908 | -154.76506 | 35899 ft | 487 kts | 224° |
| 2026-05-08 05:04 | -6.80777 | -154.81246 | 35897 ft | 487 kts | 224° |
| 2026-05-08 05:05 | -6.85646 | -154.85987 | 35896 ft | 487 kts | 224° |
| 2026-05-08 05:05 | -6.90514 | -154.90728 | 35897 ft | 487 kts | 224° |
| 2026-05-08 05:06 | -6.95385 | -154.95473 | 35900 ft | 486 kts | 224° |
| 2026-05-08 05:06 | -7.00348 | -155.00031 | 35903 ft | 487 kts | 217° |
| 2026-05-08 05:07 | -7.05961 | -155.03885 | 35900 ft | 487 kts | 214° |
| 2026-05-08 05:07 | -7.11630 | -155.07563 | 35900 ft | 487 kts | 213° |
| 2026-05-08 05:08 | -7.17349 | -155.11243 | 35903 ft | 487 kts | 213° |
| 2026-05-08 05:08 | -7.23065 | -155.14939 | 35900 ft | 487 kts | 213° |
| 2026-05-08 05:09 | -7.28766 | -155.18638 | 35899 ft | 486 kts | 213° |
| 2026-05-08 05:09 | -7.34440 | -155.22324 | 35902 ft | 485 kts | 213° |
| 2026-05-08 05:10 | -7.42908 | -155.27827 | 35903 ft | 484 kts | 213° |
| 2026-05-08 05:11 | -7.48574 | -155.31510 | 35906 ft | 485 kts | 213° |
| 2026-05-08 05:11 | -7.54249 | -155.35200 | 35905 ft | 485 kts | 213° |
| 2026-05-08 05:12 | -7.59932 | -155.38896 | 35904 ft | 485 kts | 213° |
| 2026-05-08 05:12 | -7.65560 | -155.42557 | 35905 ft | 483 kts | 213° |
| 2026-05-08 05:13 | -7.71215 | -155.46237 | 35908 ft | 483 kts | 213° |
| 2026-05-08 05:13 | -7.76864 | -155.49915 | 35913 ft | 483 kts | 213° |
| 2026-05-08 05:14 | -7.82508 | -155.53591 | 35906 ft | 483 kts | 213° |
| 2026-05-08 05:14 | -7.88166 | -155.57276 | 35908 ft | 483 kts | 213° |
| 2026-05-08 05:15 | -7.93788 | -155.60940 | 35909 ft | 483 kts | 213° |
| 2026-05-08 05:15 | -7.99437 | -155.64622 | 35911 ft | 483 kts | 213° |
| 2026-05-08 05:16 | -8.05086 | -155.68305 | 35910 ft | 483 kts | 213° |
| 2026-05-08 05:16 | -8.10698 | -155.71966 | 35908 ft | 483 kts | 213° |
| 2026-05-08 05:17 | -8.16339 | -155.75647 | 35908 ft | 483 kts | 213° |
| 2026-05-08 05:17 | -8.21979 | -155.79328 | 35911 ft | 483 kts | 213° |
| 2026-05-08 05:18 | -8.27621 | -155.83012 | 35911 ft | 483 kts | 213° |
| 2026-05-08 05:18 | -8.33263 | -155.86698 | 35914 ft | 482 kts | 214° |
| 2026-05-08 05:19 | -8.38906 | -155.90385 | 35903 ft | 481 kts | 214° |
| 2026-05-08 05:19 | -8.44503 | -155.94043 | 35912 ft | 481 kts | 214° |
| 2026-05-08 05:20 | -8.50131 | -155.97724 | 35913 ft | 482 kts | 214° |
| 2026-05-08 05:20 | -8.55762 | -156.01406 | 35913 ft | 482 kts | 214° |
| 2026-05-08 05:21 | -8.61402 | -156.05097 | 35916 ft | 482 kts | 214° |
| 2026-05-08 05:21 | -8.67031 | -156.08782 | 35922 ft | 482 kts | 214° |
| 2026-05-08 05:22 | -8.72625 | -156.12445 | 35916 ft | 482 kts | 214° |
| 2026-05-08 05:22 | -8.78253 | -156.16131 | 35914 ft | 481 kts | 214° |
| 2026-05-08 05:23 | -8.83880 | -156.19819 | 35914 ft | 481 kts | 214° |
| 2026-05-08 05:23 | -8.89508 | -156.23508 | 35914 ft | 481 kts | 214° |
| 2026-05-08 05:24 | -8.95138 | -156.27200 | 35920 ft | 482 kts | 214° |
| 2026-05-08 05:24 | -9.00738 | -156.30874 | 35914 ft | 482 kts | 214° |
| 2026-05-08 05:25 | -9.06372 | -156.34571 | 35913 ft | 483 kts | 214° |
| 2026-05-08 05:25 | -9.12014 | -156.38275 | 35919 ft | 483 kts | 214° |
| 2026-05-08 05:26 | -9.17646 | -156.41974 | 35925 ft | 482 kts | 214° |
| 2026-05-08 05:26 | -9.23242 | -156.45651 | 35924 ft | 483 kts | 214° |
| 2026-05-08 05:27 | -9.28876 | -156.49354 | 35922 ft | 483 kts | 214° |
| 2026-05-08 05:27 | -9.34506 | -156.53056 | 35927 ft | 483 kts | 214° |
| 2026-05-08 05:28 | -9.40141 | -156.56763 | 35927 ft | 483 kts | 214° |
| 2026-05-08 05:28 | -9.45783 | -156.60475 | 35926 ft | 483 kts | 214° |
| 2026-05-08 05:29 | -9.51421 | -156.64187 | 35929 ft | 483 kts | 214° |
| 2026-05-08 05:29 | -9.57060 | -156.67901 | 35931 ft | 483 kts | 214° |
| 2026-05-08 05:30 | -9.62663 | -156.71592 | 35927 ft | 483 kts | 214° |
| 2026-05-08 05:30 | -9.68306 | -156.75311 | 35927 ft | 483 kts | 214° |
| 2026-05-08 05:31 | -9.73944 | -156.79029 | 35926 ft | 483 kts | 214° |
| 2026-05-08 05:31 | -9.79587 | -156.82751 | 35930 ft | 483 kts | 214° |
| 2026-05-08 05:32 | -9.85228 | -156.86474 | 35930 ft | 484 kts | 214° |
| 2026-05-08 05:32 | -9.90869 | -156.90199 | 35934 ft | 484 kts | 214° |
| 2026-05-08 05:33 | -9.96502 | -156.93919 | 35933 ft | 483 kts | 214° |
| 2026-05-08 05:33 | -10.01183 | -156.97011 | 35933 ft | 483 kts | 214° |
| 2026-05-08 05:34 | -10.07721 | -157.01365 | 35932 ft | 483 kts | 216° |
| 2026-05-08 05:34 | -10.12273 | -157.04727 | 35930 ft | 482 kts | 218° |
| 2026-05-08 05:35 | -10.17583 | -157.08808 | 35932 ft | 482 kts | 218° |
| 2026-05-08 05:35 | -10.22959 | -157.12899 | 35933 ft | 482 kts | 218° |
| 2026-05-08 05:36 | -10.28355 | -157.16954 | 35932 ft | 482 kts | 218° |
| 2026-05-08 05:36 | -10.33755 | -157.20995 | 35930 ft | 482 kts | 218° |
| 2026-05-08 05:37 | -10.39165 | -157.25045 | 35930 ft | 482 kts | 218° |
| 2026-05-08 05:37 | -10.44561 | -157.29088 | 35939 ft | 482 kts | 218° |
| 2026-05-08 05:38 | -10.49921 | -157.33108 | 35930 ft | 482 kts | 218° |
| 2026-05-08 05:38 | -10.55315 | -157.37155 | 35930 ft | 481 kts | 218° |
| 2026-05-08 05:39 | -10.60706 | -157.41201 | 35933 ft | 481 kts | 218° |
| 2026-05-08 05:39 | -10.66094 | -157.45248 | 35933 ft | 481 kts | 218° |
| 2026-05-08 05:40 | -10.71482 | -157.49295 | 35929 ft | 481 kts | 218° |
| 2026-05-08 05:40 | -10.76871 | -157.53346 | 35933 ft | 481 kts | 218° |
| 2026-05-08 05:41 | -10.82259 | -157.57397 | 35936 ft | 481 kts | 218° |
| 2026-05-08 05:41 | -10.87637 | -157.61443 | 35933 ft | 480 kts | 218° |
| 2026-05-08 05:42 | -10.92982 | -157.65466 | 35942 ft | 480 kts | 218° |
| 2026-05-08 05:42 | -10.98358 | -157.69514 | 35933 ft | 480 kts | 218° |
| 2026-05-08 05:43 | -11.03730 | -157.73561 | 35937 ft | 480 kts | 218° |
| 2026-05-08 05:43 | -11.09103 | -157.77610 | 35938 ft | 480 kts | 218° |
| 2026-05-08 05:44 | -11.14470 | -157.81657 | 35936 ft | 480 kts | 218° |
| 2026-05-08 05:44 | -11.19847 | -157.85713 | 35939 ft | 480 kts | 218° |
| 2026-05-08 05:45 | -11.25217 | -157.89766 | 35940 ft | 479 kts | 218° |
| 2026-05-08 05:45 | -11.30547 | -157.93791 | 35938 ft | 479 kts | 218° |
| 2026-05-08 05:46 | -11.35910 | -157.97843 | 35941 ft | 479 kts | 218° |
| 2026-05-08 05:46 | -11.41274 | -158.01897 | 35941 ft | 479 kts | 218° |
| 2026-05-08 05:47 | -11.46630 | -158.05947 | 35941 ft | 479 kts | 218° |
| 2026-05-08 05:47 | -11.51959 | -158.09979 | 35941 ft | 479 kts | 218° |
| 2026-05-08 05:48 | -11.57320 | -158.14037 | 35943 ft | 479 kts | 218° |
| 2026-05-08 05:48 | -11.62678 | -158.18094 | 35947 ft | 480 kts | 218° |
| 2026-05-08 05:49 | -11.68040 | -158.22157 | 35944 ft | 480 kts | 218° |
| 2026-05-08 05:49 | -11.73411 | -158.26228 | 35944 ft | 481 kts | 218° |
| 2026-05-08 05:50 | -11.78792 | -158.30310 | 35946 ft | 481 kts | 218° |
| 2026-05-08 05:50 | -11.84167 | -158.34388 | 35946 ft | 481 kts | 218° |
| 2026-05-08 05:51 | -11.89543 | -158.38469 | 35943 ft | 481 kts | 218° |
| 2026-05-08 05:51 | -11.94887 | -158.42528 | 35946 ft | 481 kts | 219° |
| 2026-05-08 05:52 | -12.00259 | -158.46611 | 35948 ft | 481 kts | 219° |
| 2026-05-08 05:52 | -12.05627 | -158.50692 | 35947 ft | 481 kts | 219° |
| 2026-05-08 05:53 | -12.11001 | -158.54780 | 35946 ft | 481 kts | 219° |
| 2026-05-08 05:53 | -12.16371 | -158.58868 | 35947 ft | 481 kts | 219° |
| 2026-05-08 05:54 | -12.21744 | -158.62959 | 35949 ft | 481 kts | 219° |
| 2026-05-08 05:54 | -12.27079 | -158.67024 | 35949 ft | 481 kts | 219° |
| 2026-05-08 05:55 | -12.32454 | -158.71121 | 35948 ft | 481 kts | 219° |
| 2026-05-08 05:55 | -12.37822 | -158.75215 | 35952 ft | 481 kts | 219° |
| 2026-05-08 05:56 | -12.43189 | -158.79310 | 35950 ft | 481 kts | 219° |
| 2026-05-08 05:56 | -12.48522 | -158.83382 | 35949 ft | 481 kts | 219° |
| 2026-05-08 05:57 | -12.53888 | -158.87481 | 35953 ft | 481 kts | 219° |
| 2026-05-08 05:57 | -12.59248 | -158.91578 | 35952 ft | 481 kts | 219° |
| 2026-05-08 05:58 | -12.64612 | -158.95680 | 35953 ft | 481 kts | 219° |
| 2026-05-08 05:58 | -12.69951 | -158.99765 | 35952 ft | 482 kts | 219° |
| 2026-05-08 05:59 | -12.75322 | -159.03877 | 35955 ft | 482 kts | 219° |
| 2026-05-08 05:59 | -12.80695 | -159.07991 | 35958 ft | 482 kts | 219° |
| 2026-05-08 06:00 | -12.86071 | -159.12112 | 35958 ft | 482 kts | 219° |
| 2026-05-08 06:00 | -12.91439 | -159.16228 | 35963 ft | 482 kts | 219° |
| 2026-05-08 06:01 | -12.96815 | -159.20352 | 35964 ft | 482 kts | 219° |
| 2026-05-08 06:01 | -13.02161 | -159.24456 | 35962 ft | 483 kts | 220° |
| 2026-05-08 06:02 | -13.07547 | -159.28593 | 35960 ft | 483 kts | 220° |
| 2026-05-08 06:02 | -13.12940 | -159.32737 | 35961 ft | 483 kts | 220° |
| 2026-05-08 06:03 | -13.18319 | -159.36873 | 35963 ft | 483 kts | 220° |
| 2026-05-08 06:03 | -13.23706 | -159.41017 | 35965 ft | 483 kts | 220° |
| 2026-05-08 06:04 | -13.29048 | -159.45130 | 35966 ft | 483 kts | 220° |
| 2026-05-08 06:04 | -13.34430 | -159.49275 | 35965 ft | 483 kts | 220° |
| 2026-05-08 06:05 | -13.39812 | -159.53422 | 35967 ft | 482 kts | 220° |
| 2026-05-08 06:05 | -13.45185 | -159.57566 | 35966 ft | 484 kts | 220° |
| 2026-05-08 06:06 | -13.50571 | -159.61722 | 35966 ft | 484 kts | 220° |
| 2026-05-08 06:06 | -13.55955 | -159.65878 | 35966 ft | 484 kts | 220° |
| 2026-05-08 06:07 | -13.61337 | -159.70035 | 35965 ft | 484 kts | 220° |
| 2026-05-08 06:07 | -13.66725 | -159.74199 | 35968 ft | 484 kts | 220° |
| 2026-05-08 06:08 | -13.72092 | -159.78350 | 35967 ft | 484 kts | 220° |
| 2026-05-08 06:08 | -13.77478 | -159.82518 | 35967 ft | 484 kts | 220° |
| 2026-05-08 06:09 | -13.82860 | -159.86685 | 35974 ft | 484 kts | 220° |
| 2026-05-08 06:09 | -13.88248 | -159.90859 | 35970 ft | 486 kts | 220° |
| 2026-05-08 06:10 | -13.93617 | -159.95022 | 35971 ft | 486 kts | 220° |
| 2026-05-08 06:10 | -13.99012 | -159.99230 | 35952 ft | 485 kts | 223° |
| 2026-05-08 06:11 | -14.03978 | -160.03924 | 35972 ft | 483 kts | 227° |
| 2026-05-08 06:11 | -14.08771 | -160.08702 | 35980 ft | 482 kts | 227° |
| 2026-05-08 06:12 | -14.13564 | -160.13528 | 35981 ft | 481 kts | 227° |
| 2026-05-08 06:12 | -14.18356 | -160.18346 | 35979 ft | 481 kts | 227° |
| 2026-05-08 06:13 | -14.23161 | -160.23168 | 35968 ft | 482 kts | 228° |
| 2026-05-08 06:13 | -14.27971 | -160.27994 | 35971 ft | 482 kts | 228° |
| 2026-05-08 06:14 | -14.32752 | -160.32793 | 35981 ft | 482 kts | 228° |
| 2026-05-08 06:14 | -14.37557 | -160.37620 | 35987 ft | 482 kts | 228° |
| 2026-05-08 06:15 | -14.42368 | -160.42456 | 35986 ft | 482 kts | 228° |
| 2026-05-08 06:15 | -14.47172 | -160.47288 | 35975 ft | 481 kts | 228° |
| 2026-05-08 06:16 | -14.51959 | -160.52107 | 35979 ft | 480 kts | 228° |
| 2026-05-08 06:16 | -14.56749 | -160.56931 | 35984 ft | 481 kts | 228° |
| 2026-05-08 06:17 | -14.63899 | -160.64140 | 35983 ft | 481 kts | 228° |
| 2026-05-08 06:17 | -14.68692 | -160.68975 | 35983 ft | 481 kts | 228° |
| 2026-05-08 06:18 | -14.73487 | -160.73815 | 35983 ft | 481 kts | 228° |
| 2026-05-08 06:18 | -14.78246 | -160.78622 | 35983 ft | 481 kts | 228° |
| 2026-05-08 06:19 | -14.83034 | -160.83462 | 35990 ft | 481 kts | 228° |
| 2026-05-08 06:19 | -14.87825 | -160.88308 | 35990 ft | 482 kts | 228° |
| 2026-05-08 06:20 | -14.92632 | -160.93174 | 35987 ft | 483 kts | 228° |
| 2026-05-08 06:20 | -14.97431 | -160.98035 | 35989 ft | 483 kts | 228° |
| 2026-05-08 06:21 | -15.01581 | -161.01921 | 35990 ft | 486 kts | 224° |
| 2026-05-08 06:21 | -15.06818 | -161.06355 | 35989 ft | 486 kts | 223° |
| 2026-05-08 06:22 | -15.12952 | -161.11450 | 35991 ft | 487 kts | 223° |
| 2026-05-08 06:22 | -15.17374 | -161.15125 | 35995 ft | 486 kts | 223° |
| 2026-05-08 06:23 | -15.22620 | -161.19497 | 35992 ft | 486 kts | 223° |
| 2026-05-08 06:23 | -15.27898 | -161.23906 | 35994 ft | 487 kts | 223° |
| 2026-05-08 06:24 | -15.33166 | -161.28309 | 35996 ft | 487 kts | 223° |
| 2026-05-08 06:24 | -15.38434 | -161.32715 | 35997 ft | 487 kts | 223° |
| 2026-05-08 06:25 | -15.43705 | -161.37127 | 35998 ft | 487 kts | 223° |
| 2026-05-08 06:25 | -15.48977 | -161.41542 | 35998 ft | 487 kts | 223° |
| 2026-05-08 06:26 | -15.54207 | -161.45925 | 36007 ft | 487 kts | 223° |
| 2026-05-08 06:26 | -15.59486 | -161.50352 | 36000 ft | 487 kts | 223° |
| 2026-05-08 06:27 | -15.64759 | -161.54777 | 35999 ft | 487 kts | 223° |
| 2026-05-08 06:27 | -15.69999 | -161.59177 | 36005 ft | 487 kts | 223° |
| 2026-05-08 06:28 | -15.75268 | -161.63605 | 36004 ft | 487 kts | 223° |
| 2026-05-08 06:28 | -15.80546 | -161.68044 | 36005 ft | 488 kts | 223° |
| 2026-05-08 06:29 | -15.85819 | -161.72481 | 36005 ft | 487 kts | 223° |
| 2026-05-08 06:29 | -15.91088 | -161.76917 | 36015 ft | 487 kts | 223° |
| 2026-05-08 06:30 | -15.96362 | -161.81361 | 36005 ft | 488 kts | 223° |
| 2026-05-08 06:30 | -16.01639 | -161.85811 | 36010 ft | 488 kts | 223° |
| 2026-05-08 06:31 | -16.06919 | -161.90266 | 36010 ft | 488 kts | 223° |
| 2026-05-08 06:31 | -16.12160 | -161.94692 | 36011 ft | 489 kts | 223° |
| 2026-05-08 06:32 | -16.17440 | -161.99154 | 36009 ft | 489 kts | 223° |
| 2026-05-08 06:32 | -16.22723 | -162.03621 | 36009 ft | 489 kts | 223° |
| 2026-05-08 06:33 | -16.27998 | -162.08085 | 36017 ft | 489 kts | 223° |
| 2026-05-08 06:33 | -16.33276 | -162.12554 | 36012 ft | 489 kts | 223° |
| 2026-05-08 06:34 | -16.38553 | -162.17026 | 36012 ft | 489 kts | 223° |
| 2026-05-08 06:34 | -16.43826 | -162.21498 | 36012 ft | 489 kts | 223° |
| 2026-05-08 06:35 | -16.49096 | -162.25971 | 36021 ft | 489 kts | 223° |
| 2026-05-08 06:35 | -16.54338 | -162.30423 | 36012 ft | 489 kts | 223° |
| 2026-05-08 06:36 | -16.59613 | -162.34906 | 36018 ft | 489 kts | 223° |
| 2026-05-08 06:36 | -16.64891 | -162.39395 | 36020 ft | 489 kts | 223° |
| 2026-05-08 06:37 | -16.70171 | -162.43889 | 36018 ft | 490 kts | 223° |
| 2026-05-08 06:37 | -16.75457 | -162.48391 | 36018 ft | 490 kts | 223° |
| 2026-05-08 06:38 | -16.80743 | -162.52897 | 36018 ft | 490 kts | 223° |
| 2026-05-08 06:38 | -16.85995 | -162.57377 | 36020 ft | 490 kts | 223° |
| 2026-05-08 06:39 | -16.91282 | -162.61891 | 36022 ft | 490 kts | 223° |
| 2026-05-08 06:39 | -16.96556 | -162.66397 | 36022 ft | 490 kts | 223° |
| 2026-05-08 06:40 | -17.01836 | -162.70911 | 36026 ft | 490 kts | 223° |
| 2026-05-08 06:40 | -17.07114 | -162.75427 | 36023 ft | 490 kts | 223° |
| 2026-05-08 06:41 | -17.12361 | -162.79920 | 36022 ft | 490 kts | 223° |
| 2026-05-08 06:41 | -17.17632 | -162.84436 | 36024 ft | 490 kts | 223° |
| 2026-05-08 06:42 | -17.22910 | -162.88962 | 36024 ft | 490 kts | 223° |
| 2026-05-08 06:42 | -17.28187 | -162.93490 | 36026 ft | 490 kts | 223° |
| 2026-05-08 06:43 | -17.33163 | -162.97765 | 36026 ft | 490 kts | 223° |
| 2026-05-08 06:43 | -17.38442 | -163.02302 | 36026 ft | 491 kts | 223° |
| 2026-05-08 06:44 | -17.43719 | -163.06840 | 36026 ft | 491 kts | 223° |
| 2026-05-08 06:44 | -17.48964 | -163.11355 | 36026 ft | 491 kts | 223° |
| 2026-05-08 06:45 | -17.54249 | -163.15908 | 36026 ft | 491 kts | 223° |